Observation data for Stinnett on 05/24/2020      Previous  Date  Next       Current Mesonet Observations  Soil Data  Daily Summary Page  Observations in Plain Language
KST3 240500Z 18016KT 21/09 A298 RMK A01 T02140090  RH  045%=      5-min Rain = 0
KST3 240501Z 18017G22KT 21/09 A298 RMK A01 T02140089  RH  045%=      5-min Rain = 0
KST3 240502Z 18016KT 22/09 A298 RMK A01 T02150090  RH  045%=      5-min Rain = 0
KST3 240503Z 18013KT 21/09 A298 RMK A01 T02140090  RH  045%=      5-min Rain = 0
KST3 240504Z 18016G23KT 21/09 A298 RMK A01 T02140090  RH  045%=      5-min Rain = 0
KST3 240505Z 17017KT 21/09 A298 RMK A01 T02130091  RH  045%=      5-min Rain = 0
KST3 240506Z 17014KT 21/09 A298 RMK A01 T02130091  RH  046%=      5-min Rain = 0
KST3 240507Z 18017G26KT 21/09 A298 RMK A01 T02130091  RH  046%=      5-min Rain = 0
KST3 240508Z 18020G26KT 21/09 A298 RMK A01 T02130091  RH  046%=      5-min Rain = 0
KST3 240509Z 18017KT 21/09 A298 RMK A01 T02130092  RH  046%=      5-min Rain = 0
KST3 240510Z 18016KT 21/09 A298 RMK A01 T02130092  RH  046%=      5-min Rain = 0
KST3 240511Z 18018G23KT 21/09 A298 RMK A01 T02130092  RH  046%=      5-min Rain = 0
KST3 240512Z 18016KT 21/09 A298 RMK A01 T02130093  RH  046%=      5-min Rain = 0
KST3 240513Z 18016G21KT 21/09 A298 RMK A01 T02120093  RH  046%=      5-min Rain = 0
KST3 240514Z 17018KT 21/09 A298 RMK A01 T02120093  RH  047%=      5-min Rain = 0
KST3 240515Z 18018G23KT 21/09 A298 RMK A01 T02110093  RH  047%=      5-min Rain = 0
KST3 240516Z 17019KT 21/09 A298 RMK A01 T02120093  RH  046%=      5-min Rain = 0
KST3 240517Z 17019KT 21/09 A298 RMK A01 T02120093  RH  046%=      5-min Rain = 0
KST3 240518Z 18018KT 21/09 A298 RMK A01 T02120093  RH  046%=      5-min Rain = 0
KST3 240519Z 17017G22KT 21/09 A298 RMK A01 T02120093  RH  046%=      5-min Rain = 0
KST3 240520Z 18021KT 21/09 A298 RMK A01 T02120093  RH  046%=      5-min Rain = 0
KST3 240521Z 18019KT 21/09 A298 RMK A01 T02120093  RH  047%=      5-min Rain = 0
KST3 240522Z 18019G25KT 21/09 A298 RMK A01 T02120094  RH  047%=      5-min Rain = 0
KST3 240523Z 17021KT 21/09 A298 RMK A01 T02120094  RH  047%=      5-min Rain = 0
KST3 240524Z 17017G22KT 21/09 A298 RMK A01 T02120094  RH  047%=      5-min Rain = 0
KST3 240525Z 17015G20KT 21/09 A298 RMK A01 T02110094  RH  047%=      5-min Rain = 0
KST3 240526Z 17018KT 21/09 A298 RMK A01 T02100094  RH  047%=      5-min Rain = 0
KST3 240527Z 18016KT 21/09 A298 RMK A01 T02100094  RH  047%=      5-min Rain = 0
KST3 240528Z 17015G22KT 21/09 A298 RMK A01 T02100094  RH  048%=      5-min Rain = 0
KST3 240529Z 18020G25KT 21/09 A298 RMK A01 T02090094  RH  048%=      5-min Rain = 0
KST3 240530Z 18018KT 21/09 A298 RMK A01 T02090094  RH  048%=      5-min Rain = 0
KST3 240531Z 17018G23KT 21/09 A298 RMK A01 T02090094  RH  048%=      5-min Rain = 0
KST3 240532Z 17019G24KT 21/10 A298 RMK A01 T02100095  RH  048%=      5-min Rain = 0
KST3 240533Z 18020KT 21/09 A298 RMK A01 T02100094  RH  048%=      5-min Rain = 0
KST3 240534Z 17017G22KT 21/10 A2979 RMK A01 T02100095  RH  048%=      5-min Rain = 0
KST3 240535Z 17019G24KT 21/10 A2979 RMK A01 T02090095  RH  048%=      5-min Rain = 0
KST3 240536Z 18018G23KT 21/10 A2979 RMK A01 T02090096  RH  048%=      5-min Rain = 0
KST3 240537Z 17017G22KT 21/10 A2979 RMK A01 T02090096  RH  048%=      5-min Rain = 0
KST3 240538Z 18014KT 21/10 A2979 RMK A01 T02080096  RH  049%=      5-min Rain = 0
KST3 240539Z 17014KT 21/10 A2979 RMK A01 T02070096  RH  049%=      5-min Rain = 0
KST3 240540Z 18016G21KT 21/10 A2979 RMK A01 T02060096  RH  049%=      5-min Rain = 0
KST3 240541Z 17015KT 21/10 A2979 RMK A01 T02060097  RH  049%=      5-min Rain = 0
KST3 240542Z 17016KT 21/10 A2979 RMK A01 T02060097  RH  050%=      5-min Rain = 0
KST3 240543Z 17019KT 21/10 A2979 RMK A01 T02050097  RH  050%=      5-min Rain = 0
KST3 240544Z 18015KT 21/10 A2979 RMK A01 T02060097  RH  050%=      5-min Rain = 0
KST3 240545Z 17017G22KT 21/10 A2979 RMK A01 T02050097  RH  050%=      5-min Rain = 0
KST3 240546Z 17017KT 21/10 A2979 RMK A01 T02050097  RH  050%=      5-min Rain = 0
KST3 240547Z 17016KT 21/10 A2979 RMK A01 T02050097  RH  050%=      5-min Rain = 0
KST3 240548Z 17016KT 21/10 A2979 RMK A01 T02050097  RH  050%=      5-min Rain = 0
KST3 240549Z 17015G20KT 21/10 A2979 RMK A01 T02050097  RH  050%=      5-min Rain = 0
KST3 240550Z 17018KT 21/10 A2979 RMK A01 T02050097  RH  050%=      5-min Rain = 0
KST3 240551Z 17017KT 21/10 A2979 RMK A01 T02050098  RH  050%=      5-min Rain = 0
KST3 240552Z 17020KT 20/10 A2979 RMK A01 T02040097  RH  050%=      5-min Rain = 0
KST3 240553Z 17017KT 21/10 A2979 RMK A01 T02050097  RH  050%=      5-min Rain = 0
KST3 240554Z 17016KT 21/10 A2979 RMK A01 T02050098  RH  050%=      5-min Rain = 0
KST3 240555Z 17018KT 21/10 A2979 RMK A01 T02050098  RH  050%=      5-min Rain = 0
KST3 240556Z 17017KT 20/10 A2979 RMK A01 T02040098  RH  050%=      5-min Rain = 0
KST3 240557Z 17017KT 20/10 A2979 RMK A01 T02040098  RH  051%=      5-min Rain = 0
KST3 240558Z 17019G25KT 20/10 A2979 RMK A01 T02040098  RH  051%=      5-min Rain = 0
KST3 240559Z 17018G24KT 20/10 A2979 RMK A01 T02040098  RH  050%=      5-min Rain = 0
KST3 240600Z 17017G22KT 20/10 A2979 RMK A01 T02040098  RH  050%=      5-min Rain = 0
KST3 240601Z 17017KT 20/10 A2979 RMK A01 T02040098  RH  051%=      5-min Rain = 0
KST3 240602Z 17018KT 20/10 A2979 RMK A01 T02030098  RH  051%=      5-min Rain = 0
KST3 240603Z 17019KT 20/10 A2979 RMK A01 T02030099  RH  051%=      5-min Rain = 0
KST3 240604Z 17019KT 20/10 A2979 RMK A01 T02030099  RH  051%=      5-min Rain = 0
KST3 240605Z 17016KT 20/10 A2979 RMK A01 T02030099  RH  051%=      5-min Rain = 0
KST3 240606Z 17019G24KT 20/10 A2979 RMK A01 T02020099  RH  051%=      5-min Rain = 0
KST3 240607Z 17016KT 20/10 A2979 RMK A01 T02030099  RH  051%=      5-min Rain = 0
KST3 240608Z 17018KT 20/10 A2979 RMK A01 T02030098  RH  051%=      5-min Rain = 0
KST3 240609Z 17018G23KT 20/10 A298 RMK A01 T02020098  RH  051%=      5-min Rain = 0
KST3 240610Z 17016KT 20/10 A298 RMK A01 T02030099  RH  051%=      5-min Rain = 0
KST3 240611Z 16015KT 20/10 A298 RMK A01 T02020099  RH  051%=      5-min Rain = 0
KST3 240612Z 17015KT 20/10 A298 RMK A01 T02020099  RH  052%=      5-min Rain = 0
KST3 240613Z 17016G22KT 20/10 A298 RMK A01 T02020100  RH  052%=      5-min Rain = 0
KST3 240614Z 17017KT 20/10 A298 RMK A01 T02010099  RH  052%=      5-min Rain = 0
KST3 240615Z 16019KT 20/10 A298 RMK A01 T02010099  RH  052%=      5-min Rain = 0
KST3 240616Z 16017KT 20/10 A298 RMK A01 T02020100  RH  052%=      5-min Rain = 0
KST3 240617Z 16021KT 20/10 A298 RMK A01 T02010100  RH  052%=      5-min Rain = 0
KST3 240618Z 16018KT 20/10 A298 RMK A01 T02010100  RH  052%=      5-min Rain = 0
KST3 240619Z 17016KT 20/10 A298 RMK A01 T02010100  RH  052%=      5-min Rain = 0
KST3 240620Z 16016G22KT 20/10 A2981 RMK A01 T02010101  RH  052%=      5-min Rain = 0
KST3 240621Z 16017KT 20/10 A2981 RMK A01 T02010100  RH  052%=      5-min Rain = 0
KST3 240622Z 16016G21KT 20/10 A2981 RMK A01 T02010100  RH  052%=      5-min Rain = 0
KST3 240623Z 16015KT 20/10 A2981 RMK A01 T02000101  RH  053%=      5-min Rain = 0
KST3 240624Z 16013G19KT 20/10 A2981 RMK A01 T02000101  RH  053%=      5-min Rain = 0
KST3 240625Z 16017KT 20/10 A2981 RMK A01 T01990101  RH  053%=      5-min Rain = 0
KST3 240626Z 16015G20KT 20/10 A2981 RMK A01 T01990102  RH  053%=      5-min Rain = 0
KST3 240627Z 16013KT 20/10 A2981 RMK A01 T01990102  RH  054%=      5-min Rain = 0
KST3 240628Z 16015G20KT 20/10 A2981 RMK A01 T01980102  RH  054%=      5-min Rain = 0
KST3 240629Z 16014KT 20/10 A2981 RMK A01 T01970102  RH  054%=      5-min Rain = 0
KST3 240630Z 16015KT 20/10 A2981 RMK A01 T01970102  RH  054%=      5-min Rain = 0
KST3 240631Z 16016KT 20/10 A2981 RMK A01 T01970103  RH  055%=      5-min Rain = 0
KST3 240632Z 16017KT 20/10 A2981 RMK A01 T01960103  RH  055%=      5-min Rain = 0
KST3 240633Z 16017KT 20/10 A2981 RMK A01 T01970103  RH  055%=      5-min Rain = 0
KST3 240634Z 16016G21KT 20/10 A2981 RMK A01 T01970103  RH  055%=      5-min Rain = 0
KST3 240635Z 16013KT 20/10 A2981 RMK A01 T01970103  RH  055%=      5-min Rain = 0
KST3 240636Z 16015KT 20/10 A2981 RMK A01 T01970103  RH  055%=      5-min Rain = 0
KST3 240637Z 16014KT 20/10 A2982 RMK A01 T01970104  RH  055%=      5-min Rain = 0
KST3 240638Z 15018G24KT 20/10 A2982 RMK A01 T01960104  RH  055%=      5-min Rain = 0
KST3 240639Z 15014G20KT 20/10 A2981 RMK A01 T01960103  RH  055%=      5-min Rain = 0
KST3 240640Z 15014KT 20/10 A2982 RMK A01 T01960103  RH  055%=      5-min Rain = 0
KST3 240641Z 14014KT 20/10 A2982 RMK A01 T01960103  RH  055%=      5-min Rain = 0
KST3 240642Z 15013KT 20/10 A2982 RMK A01 T01960103  RH  055%=      5-min Rain = 0
KST3 240643Z 15008KT 20/10 A2982 RMK A01 T01960103  RH  055%=      5-min Rain = 0
KST3 240644Z 14008KT 20/10 A2982 RMK A01 T01950103  RH  055%=      5-min Rain = 0
KST3 240645Z 13008KT 19/10 A2982 RMK A01 T01940103  RH  056%=      5-min Rain = 0
KST3 240646Z 13008KT 19/10 A2981 RMK A01 T01930104  RH  056%=      5-min Rain = 0
KST3 240647Z 14008KT 19/11 A2982 RMK A01 T01920105  RH  057%=      5-min Rain = 0
KST3 240648Z 14010KT 19/11 A2982 RMK A01 T01910105  RH  057%=      5-min Rain = 0
KST3 240649Z 14008KT 19/11 A2982 RMK A01 T01900106  RH  058%=      5-min Rain = 0
KST3 240650Z 15009KT 19/11 A2982 RMK A01 T01900106  RH  058%=      5-min Rain = 0
KST3 240651Z 14008KT 19/11 A2982 RMK A01 T01890106  RH  058%=      5-min Rain = 0
KST3 240652Z 14009KT 19/11 A2982 RMK A01 T01880106  RH  059%=      5-min Rain = 0
KST3 240653Z 14009KT 19/11 A2982 RMK A01 T01880106  RH  059%=      5-min Rain = 0
KST3 240654Z 13011KT 19/11 A2982 RMK A01 T01870106  RH  059%=      5-min Rain = 0
KST3 240655Z 13009KT 19/11 A2982 RMK A01 T01870107  RH  059%=      5-min Rain = 0
KST3 240656Z 13012KT 19/11 A2982 RMK A01 T01870107  RH  060%=      5-min Rain = 0
KST3 240657Z 14013KT 19/11 A2983 RMK A01 T01870108  RH  060%=      5-min Rain = 0
KST3 240658Z 14009KT 19/11 A2983 RMK A01 T01870108  RH  060%=      5-min Rain = 0
KST3 240659Z 13009KT 19/11 A2982 RMK A01 T01870108  RH  060%=      5-min Rain = 0
KST3 240700Z 14011KT 19/11 A2982 RMK A01 T01860108  RH  060%=      5-min Rain = 0
KST3 240701Z 14009G14KT 19/11 A2982 RMK A01 T01860109  RH  061%=      5-min Rain = 0
KST3 240702Z 14009KT 19/11 A2982 RMK A01 T01860109  RH  061%=      5-min Rain = 0
KST3 240703Z 15009KT 19/11 A2983 RMK A01 T01860109  RH  061%=      5-min Rain = 0
KST3 240704Z 14008KT 19/11 A2982 RMK A01 T01850109  RH  061%=      5-min Rain = 0
KST3 240705Z 14009KT 19/11 A2982 RMK A01 T01850109  RH  061%=      5-min Rain = 0
KST3 240706Z 13008KT 19/11 A2982 RMK A01 T01850109  RH  061%=      5-min Rain = 0
KST3 240707Z 13007KT 18/11 A2983 RMK A01 T01840109  RH  061%=      5-min Rain = 0
KST3 240708Z 13009KT 18/11 A2983 RMK A01 T01830109  RH  062%=      5-min Rain = 0
KST3 240709Z 13008KT 18/11 A2983 RMK A01 T01830109  RH  062%=      5-min Rain = 0
KST3 240710Z 13010KT 18/11 A2983 RMK A01 T01830110  RH  062%=      5-min Rain = 0
KST3 240711Z 14009KT 18/11 A2983 RMK A01 T01830110  RH  062%=      5-min Rain = 0
KST3 240712Z 14011KT 18/11 A2983 RMK A01 T01830110  RH  063%=      5-min Rain = 0
KST3 240713Z 15011KT 18/11 A2983 RMK A01 T01820110  RH  063%=      5-min Rain = 0
KST3 240714Z 14010KT 18/11 A2983 RMK A01 T01830111  RH  063%=      5-min Rain = 0
KST3 240715Z 15010KT 18/11 A2983 RMK A01 T01820111  RH  063%=      5-min Rain = 0
KST3 240716Z 15011KT 18/11 A2983 RMK A01 T01820111  RH  063%=      5-min Rain = 0
KST3 240717Z 14010KT 18/11 A2982 RMK A01 T01810111  RH  063%=      5-min Rain = 0
KST3 240718Z 14009KT 18/11 A2982 RMK A01 T01810111  RH  064%=      5-min Rain = 0
KST3 240719Z 13009KT 18/11 A2982 RMK A01 T01810112  RH  064%=      5-min Rain = 0
KST3 240720Z 14007KT 18/11 A2982 RMK A01 T01800112  RH  064%=      5-min Rain = 0
KST3 240721Z 14008KT 18/11 A2982 RMK A01 T01800112  RH  065%=      5-min Rain = 0
KST3 240722Z 15007KT 18/11 A2982 RMK A01 T01790112  RH  065%=      5-min Rain = 0
KST3 240723Z 15008KT 18/11 A2982 RMK A01 T01780112  RH  065%=      5-min Rain = 0
KST3 240724Z 15008KT 18/11 A2982 RMK A01 T01780112  RH  065%=      5-min Rain = 0
KST3 240725Z 15009KT 18/11 A2982 RMK A01 T01780112  RH  066%=      5-min Rain = 0
KST3 240726Z 15009KT 18/11 A2982 RMK A01 T01770112  RH  066%=      5-min Rain = 0
KST3 240727Z 15010KT 18/11 A2982 RMK A01 T01780112  RH  066%=      5-min Rain = 0
KST3 240728Z 15008KT 18/11 A2982 RMK A01 T01770112  RH  066%=      5-min Rain = 0
KST3 240729Z 16008KT 18/11 A2982 RMK A01 T01780113  RH  066%=      5-min Rain = 0
KST3 240730Z 16008KT 18/11 A2982 RMK A01 T01770112  RH  066%=      5-min Rain = 0
KST3 240731Z 15007KT 18/11 A2982 RMK A01 T01770113  RH  066%=      5-min Rain = 0
KST3 240732Z 15008KT 18/11 A2982 RMK A01 T01760112  RH  066%=      5-min Rain = 0
KST3 240733Z 16009KT 18/11 A2982 RMK A01 T01760112  RH  066%=      5-min Rain = 0
KST3 240734Z 16009KT 18/11 A2982 RMK A01 T01760112  RH  066%=      5-min Rain = 0
KST3 240735Z 16008KT 18/11 A2982 RMK A01 T01760112  RH  066%=      5-min Rain = 0
KST3 240736Z 15010KT 18/11 A2982 RMK A01 T01760112  RH  066%=      5-min Rain = 0
KST3 240737Z 16010KT 18/11 A2982 RMK A01 T01760112  RH  066%=      5-min Rain = 0
KST3 240738Z 16011KT 18/11 A2982 RMK A01 T01770112  RH  066%=      5-min Rain = 0
KST3 240739Z 15011KT 18/11 A2982 RMK A01 T01770112  RH  066%=      5-min Rain = 0
KST3 240740Z 16009KT 18/11 A2983 RMK A01 T01770112  RH  066%=      5-min Rain = 0
KST3 240741Z 15010KT 18/11 A2983 RMK A01 T01770113  RH  066%=      5-min Rain = 0
KST3 240742Z 15010KT 18/11 A2983 RMK A01 T01760113  RH  066%=      5-min Rain = 0
KST3 240743Z 15008KT 18/11 A2982 RMK A01 T01750113  RH  067%=      5-min Rain = 0
KST3 240744Z 15009KT 18/11 A2982 RMK A01 T01750113  RH  067%=      5-min Rain = 0
KST3 240745Z 14009KT 18/11 A2982 RMK A01 T01750113  RH  067%=      5-min Rain = 0
KST3 240746Z 15010KT 17/11 A2982 RMK A01 T01740113  RH  067%=      5-min Rain = 0
KST3 240747Z 15010KT 17/11 A2982 RMK A01 T01740113  RH  067%=      5-min Rain = 0
KST3 240748Z 15010KT 17/11 A2982 RMK A01 T01740113  RH  068%=      5-min Rain = 0
KST3 240749Z 16010KT 17/11 A2982 RMK A01 T01740113  RH  068%=      5-min Rain = 0
KST3 240750Z 16010KT 17/11 A2982 RMK A01 T01730113  RH  068%=      5-min Rain = 0
KST3 240751Z 16011KT 17/11 A2982 RMK A01 T01730113  RH  068%=      5-min Rain = 0
KST3 240752Z 16010KT 17/11 A2983 RMK A01 T01730113  RH  068%=      5-min Rain = 0
KST3 240753Z 16011KT 17/11 A2983 RMK A01 T01740113  RH  068%=      5-min Rain = 0
KST3 240754Z 16010KT 17/11 A2983 RMK A01 T01740114  RH  068%=      5-min Rain = 0
KST3 240755Z 16012KT 17/11 A2983 RMK A01 T01740113  RH  067%=      5-min Rain = 0
KST3 240756Z 17009KT 18/11 A2983 RMK A01 T01750113  RH  067%=      5-min Rain = 0
KST3 240757Z 16010KT 18/11 A2983 RMK A01 T01750113  RH  067%=      5-min Rain = 0
KST3 240758Z 17011KT 18/11 A2983 RMK A01 T01750113  RH  067%=      5-min Rain = 0
KST3 240759Z 17013KT 18/11 A2983 RMK A01 T01750112  RH  066%=      5-min Rain = 0
KST3 240800Z 17012KT 18/11 A2983 RMK A01 T01770111  RH  065%=      5-min Rain = 0
KST3 240801Z 17013G18KT 18/11 A2983 RMK A01 T01780111  RH  065%=      5-min Rain = 0
KST3 240802Z 17015KT 18/11 A2982 RMK A01 T01790111  RH  064%=      5-min Rain = 0
KST3 240803Z 17013KT 18/11 A2983 RMK A01 T01800111  RH  064%=      5-min Rain = 0
KST3 240804Z 17013KT 18/11 A2983 RMK A01 T01800111  RH  064%=      5-min Rain = 0
KST3 240805Z 17014KT 18/11 A2983 RMK A01 T01810111  RH  064%=      5-min Rain = 0
KST3 240806Z 17016KT 18/11 A2983 RMK A01 T01810111  RH  063%=      5-min Rain = 0
KST3 240807Z 17014KT 18/11 A2983 RMK A01 T01810111  RH  063%=      5-min Rain = 0
KST3 240808Z 17014KT 18/11 A2983 RMK A01 T01810111  RH  063%=      5-min Rain = 0
KST3 240809Z 17013KT 18/11 A2983 RMK A01 T01810110  RH  063%=      5-min Rain = 0
KST3 240810Z 17014KT 18/11 A2983 RMK A01 T01810111  RH  063%=      5-min Rain = 0
KST3 240811Z 17014KT 18/11 A2983 RMK A01 T01810111  RH  063%=      5-min Rain = 0
KST3 240812Z 17015KT 18/11 A2983 RMK A01 T01810111  RH  064%=      5-min Rain = 0
KST3 240813Z 18016KT 18/11 A2983 RMK A01 T01810111  RH  064%=      5-min Rain = 0
KST3 240814Z 17014KT 18/11 A2983 RMK A01 T01810111  RH  063%=      5-min Rain = 0
KST3 240815Z 17012KT 18/11 A2983 RMK A01 T01810111  RH  064%=      5-min Rain = 0
KST3 240816Z 17013KT 18/11 A2983 RMK A01 T01810111  RH  064%=      5-min Rain = 0
KST3 240817Z 18011KT 18/11 A2983 RMK A01 T01810111  RH  064%=      5-min Rain = 0
KST3 240818Z 18011KT 18/11 A2983 RMK A01 T01800111  RH  064%=      5-min Rain = 0
KST3 240819Z 17012KT 18/11 A2983 RMK A01 T01800111  RH  064%=      5-min Rain = 0
KST3 240820Z 17011KT 18/11 A2983 RMK A01 T01790110  RH  064%=      5-min Rain = 0
KST3 240821Z 17013KT 18/11 A2983 RMK A01 T01800111  RH  064%=      5-min Rain = 0
KST3 240822Z 17012KT 18/11 A2983 RMK A01 T01800111  RH  064%=      5-min Rain = 0
KST3 240823Z 17011KT 18/11 A2983 RMK A01 T01800111  RH  064%=      5-min Rain = 0
KST3 240824Z 17011KT 18/11 A2983 RMK A01 T01800111  RH  064%=      5-min Rain = 0
KST3 240825Z 16011KT 18/11 A2983 RMK A01 T01800111  RH  064%=      5-min Rain = 0
KST3 240826Z 16013KT 18/11 A2983 RMK A01 T01800110  RH  064%=      5-min Rain = 0
KST3 240827Z 16012KT 18/11 A2983 RMK A01 T01800110  RH  063%=      5-min Rain = 0
KST3 240828Z 16011KT 18/11 A2983 RMK A01 T01810110  RH  063%=      5-min Rain = 0
KST3 240829Z 16012KT 18/11 A2983 RMK A01 T01800110  RH  063%=      5-min Rain = 0
KST3 240830Z 16011KT 18/11 A2983 RMK A01 T01800110  RH  063%=      5-min Rain = 0
KST3 240831Z 16011KT 18/11 A2983 RMK A01 T01800110  RH  064%=      5-min Rain = 0
KST3 240832Z 16010KT 18/11 A2983 RMK A01 T01800110  RH  064%=      5-min Rain = 0
KST3 240833Z 16010KT 18/11 A2983 RMK A01 T01790110  RH  064%=      5-min Rain = 0
KST3 240834Z 16011KT 18/11 A2983 RMK A01 T01790110  RH  064%=      5-min Rain = 0
KST3 240835Z 15011KT 18/11 A2983 RMK A01 T01790110  RH  064%=      5-min Rain = 0
KST3 240836Z 15010KT 18/11 A2983 RMK A01 T01790110  RH  064%=      5-min Rain = 0
KST3 240837Z 16011KT 18/11 A2983 RMK A01 T01780110  RH  064%=      5-min Rain = 0
KST3 240838Z 16011KT 18/11 A2983 RMK A01 T01780110  RH  064%=      5-min Rain = 0
KST3 240839Z 16012KT 18/11 A2983 RMK A01 T01780110  RH  065%=      5-min Rain = 0
KST3 240840Z 16011KT 18/11 A2983 RMK A01 T01770110  RH  065%=      5-min Rain = 0
KST3 240841Z 16010KT 18/11 A2983 RMK A01 T01770110  RH  065%=      5-min Rain = 0
KST3 240842Z 17011KT 18/11 A2983 RMK A01 T01770110  RH  065%=      5-min Rain = 0
KST3 240843Z 17011KT 18/11 A2983 RMK A01 T01770110  RH  065%=      5-min Rain = 0
KST3 240844Z 17011KT 18/11 A2983 RMK A01 T01770110  RH  065%=      5-min Rain = 0
KST3 240845Z 16013KT 18/11 A2983 RMK A01 T01770110  RH  065%=      5-min Rain = 0
KST3 240846Z 17014KT 18/11 A2983 RMK A01 T01780110  RH  064%=      5-min Rain = 0
KST3 240847Z 17013KT 18/11 A2983 RMK A01 T01790110  RH  064%=      5-min Rain = 0
KST3 240848Z 17014KT 18/11 A2983 RMK A01 T01790109  RH  064%=      5-min Rain = 0
KST3 240849Z 16012G19KT 18/11 A2983 RMK A01 T01790110  RH  064%=      5-min Rain = 0
KST3 240850Z 16017KT 18/11 A2983 RMK A01 T01780109  RH  064%=      5-min Rain = 0
KST3 240851Z 16016KT 18/11 A2983 RMK A01 T01790109  RH  064%=      5-min Rain = 0
KST3 240852Z 17013KT 18/11 A2983 RMK A01 T01790109  RH  064%=      5-min Rain = 0
KST3 240853Z 16012KT 18/11 A2983 RMK A01 T01790109  RH  064%=      5-min Rain = 0
KST3 240854Z 16012KT 18/11 A2983 RMK A01 T01780109  RH  064%=      5-min Rain = 0
KST3 240855Z 17011G16KT 18/11 A2983 RMK A01 T01780109  RH  064%=      5-min Rain = 0
KST3 240856Z 17011KT 18/11 A2983 RMK A01 T01770109  RH  064%=      5-min Rain = 0
KST3 240857Z 16012KT 18/11 A2983 RMK A01 T01770109  RH  064%=      5-min Rain = 0
KST3 240858Z 17014KT 18/11 A2983 RMK A01 T01770109  RH  064%=      5-min Rain = 0
KST3 240859Z 17013KT 18/11 A2983 RMK A01 T01770109  RH  064%=      5-min Rain = 0
KST3 240900Z 17013KT 18/11 A2983 RMK A01 T01770108  RH  064%=      5-min Rain = 0
KST3 240901Z 17012G17KT 18/11 A2983 RMK A01 T01770108  RH  064%=      5-min Rain = 0
KST3 240902Z 17014KT 18/11 A2983 RMK A01 T01780108  RH  064%=      5-min Rain = 0
KST3 240903Z 17013KT 18/11 A2983 RMK A01 T01780108  RH  064%=      5-min Rain = 0
KST3 240904Z 18015KT 18/11 A2983 RMK A01 T01780108  RH  063%=      5-min Rain = 0
KST3 240905Z 17016KT 18/11 A2983 RMK A01 T01780108  RH  063%=      5-min Rain = 0
KST3 240906Z 17014KT 18/11 A2983 RMK A01 T01790108  RH  063%=      5-min Rain = 0
KST3 240907Z 17014KT 18/11 A2983 RMK A01 T01790108  RH  063%=      5-min Rain = 0
KST3 240908Z 16014KT 18/11 A2983 RMK A01 T01790108  RH  063%=      5-min Rain = 0
KST3 240909Z 17015G20KT 18/11 A2983 RMK A01 T01790107  RH  063%=      5-min Rain = 0
KST3 240910Z 17012KT 18/11 A2983 RMK A01 T01790107  RH  063%=      5-min Rain = 0
KST3 240911Z 17014KT 18/11 A2983 RMK A01 T01790107  RH  063%=      5-min Rain = 0
KST3 240912Z 16015KT 18/11 A2983 RMK A01 T01790107  RH  063%=      5-min Rain = 0
KST3 240913Z 17012KT 18/11 A2983 RMK A01 T01790107  RH  063%=      5-min Rain = 0
KST3 240914Z 17012KT 18/11 A2984 RMK A01 T01790107  RH  063%=      5-min Rain = 0
KST3 240915Z 17017KT 18/11 A2983 RMK A01 T01780107  RH  063%=      5-min Rain = 0
KST3 240916Z 17015KT 18/11 A2983 RMK A01 T01780107  RH  063%=      5-min Rain = 0
KST3 240917Z 17014KT 18/11 A2983 RMK A01 T01780106  RH  063%=      5-min Rain = 0
KST3 240918Z 17015KT 18/11 A2983 RMK A01 T01780106  RH  063%=      5-min Rain = 0
KST3 240919Z 17015KT 18/11 A2983 RMK A01 T01780106  RH  063%=      5-min Rain = 0
KST3 240920Z 17016KT 18/11 A2983 RMK A01 T01780106  RH  062%=      5-min Rain = 0
KST3 240921Z 17014KT 18/11 A2983 RMK A01 T01780105  RH  062%=      5-min Rain = 0
KST3 240922Z 17014KT 18/11 A2983 RMK A01 T01780106  RH  063%=      5-min Rain = 0
KST3 240923Z 17014KT 18/11 A2983 RMK A01 T01780106  RH  063%=      5-min Rain = 0
KST3 240924Z 17014G19KT 18/11 A2983 RMK A01 T01780106  RH  063%=      5-min Rain = 0
KST3 240925Z 18010KT 18/11 A2984 RMK A01 T01780106  RH  062%=      5-min Rain = 0
KST3 240926Z 17012KT 18/11 A2984 RMK A01 T01780105  RH  062%=      5-min Rain = 0
KST3 240927Z 17012KT 18/11 A2984 RMK A01 T01780106  RH  063%=      5-min Rain = 0
KST3 240928Z 17013KT 18/11 A2984 RMK A01 T01780105  RH  062%=      5-min Rain = 0
KST3 240929Z 17013KT 18/11 A2984 RMK A01 T01780105  RH  062%=      5-min Rain = 0
KST3 240930Z 17013KT 18/11 A2984 RMK A01 T01780105  RH  062%=      5-min Rain = 0
KST3 240931Z 17011G16KT 18/11 A2984 RMK A01 T01780105  RH  062%=      5-min Rain = 0
KST3 240932Z 17012KT 18/10 A2984 RMK A01 T01780104  RH  062%=      5-min Rain = 0
KST3 240933Z 17014KT 18/10 A2984 RMK A01 T01770104  RH  062%=      5-min Rain = 0
KST3 240934Z 17014KT 18/10 A2984 RMK A01 T01770104  RH  062%=      5-min Rain = 0
KST3 240935Z 17011KT 18/10 A2984 RMK A01 T01780104  RH  062%=      5-min Rain = 0
KST3 240936Z 17013KT 18/10 A2984 RMK A01 T01780104  RH  062%=      5-min Rain = 0
KST3 240937Z 17015KT 18/10 A2984 RMK A01 T01780104  RH  062%=      5-min Rain = 0
KST3 240938Z 17012KT 18/10 A2984 RMK A01 T01780104  RH  062%=      5-min Rain = 0
KST3 240939Z 17011KT 18/10 A2984 RMK A01 T01790104  RH  061%=      5-min Rain = 0
KST3 240940Z 17012KT 18/10 A2984 RMK A01 T01790104  RH  061%=      5-min Rain = 0
KST3 240941Z 16011KT 18/10 A2984 RMK A01 T01780104  RH  062%=      5-min Rain = 0
KST3 240942Z 17013KT 18/10 A2984 RMK A01 T01780104  RH  062%=      5-min Rain = 0
KST3 240943Z 17011KT 18/10 A2984 RMK A01 T01780104  RH  062%=      5-min Rain = 0
KST3 240944Z 17010KT 18/10 A2984 RMK A01 T01780104  RH  062%=      5-min Rain = 0
KST3 240945Z 17010KT 18/10 A2984 RMK A01 T01770103  RH  062%=      5-min Rain = 0
KST3 240946Z 17011KT 18/10 A2984 RMK A01 T01770103  RH  062%=      5-min Rain = 0
KST3 240947Z 17012KT 18/10 A2984 RMK A01 T01770103  RH  062%=      5-min Rain = 0
KST3 240948Z 16011KT 18/10 A2984 RMK A01 T01770103  RH  062%=      5-min Rain = 0
KST3 240949Z 17009KT 18/10 A2984 RMK A01 T01770103  RH  062%=      5-min Rain = 0
KST3 240950Z 17010KT 18/10 A2984 RMK A01 T01760103  RH  062%=      5-min Rain = 0
KST3 240951Z 17011KT 18/10 A2984 RMK A01 T01760103  RH  062%=      5-min Rain = 0
KST3 240952Z 17012KT 18/10 A2984 RMK A01 T01750103  RH  062%=      5-min Rain = 0
KST3 240953Z 17011KT 18/10 A2984 RMK A01 T01760103  RH  062%=      5-min Rain = 0
KST3 240954Z 17012KT 18/10 A2984 RMK A01 T01760102  RH  062%=      5-min Rain = 0
KST3 240955Z 17015KT 18/10 A2983 RMK A01 T01760102  RH  062%=      5-min Rain = 0
KST3 240956Z 17013KT 18/10 A2983 RMK A01 T01770102  RH  062%=      5-min Rain = 0
KST3 240957Z 18013KT 18/10 A2983 RMK A01 T01770102  RH  061%=      5-min Rain = 0
KST3 240958Z 17014KT 18/10 A2983 RMK A01 T01770102  RH  061%=      5-min Rain = 0
KST3 240959Z 18013KT 18/10 A2983 RMK A01 T01770102  RH  061%=      5-min Rain = 0
KST3 241000Z 17014KT 18/10 A2983 RMK A01 T01770102  RH  061%=      5-min Rain = 0
KST3 241001Z 17012KT 18/10 A2983 RMK A01 T01770102  RH  061%=      5-min Rain = 0
KST3 241002Z 17013KT 18/10 A2983 RMK A01 T01770102  RH  061%=      5-min Rain = 0
KST3 241003Z 17012KT 18/10 A2983 RMK A01 T01760102  RH  061%=      5-min Rain = 0
KST3 241004Z 17015KT 18/10 A2983 RMK A01 T01760102  RH  061%=      5-min Rain = 0
KST3 241005Z 17013KT 18/10 A2983 RMK A01 T01770101  RH  061%=      5-min Rain = 0
KST3 241006Z 17012KT 18/10 A2983 RMK A01 T01770101  RH  061%=      5-min Rain = 0
KST3 241007Z 17013KT 18/10 A2983 RMK A01 T01760102  RH  061%=      5-min Rain = 0
KST3 241008Z 17014KT 18/10 A2983 RMK A01 T01760101  RH  062%=      5-min Rain = 0
KST3 241009Z 17012KT 18/10 A2983 RMK A01 T01760101  RH  061%=      5-min Rain = 0
KST3 241010Z 17011KT 18/10 A2983 RMK A01 T01760101  RH  061%=      5-min Rain = 0
KST3 241011Z 17014KT 18/10 A2983 RMK A01 T01760101  RH  062%=      5-min Rain = 0
KST3 241012Z 17013G18KT 18/10 A2983 RMK A01 T01760101  RH  062%=      5-min Rain = 0
KST3 241013Z 17014KT 18/10 A2983 RMK A01 T01760101  RH  062%=      5-min Rain = 0
KST3 241014Z 17013KT 18/10 A2983 RMK A01 T01760101  RH  062%=      5-min Rain = 0
KST3 241015Z 17013KT 18/10 A2983 RMK A01 T01760101  RH  061%=      5-min Rain = 0
KST3 241016Z 17013KT 18/10 A2983 RMK A01 T01760101  RH  061%=      5-min Rain = 0
KST3 241017Z 17013G18KT 18/10 A2983 RMK A01 T01760101  RH  061%=      5-min Rain = 0
KST3 241018Z 17014KT 18/10 A2983 RMK A01 T01760101  RH  062%=      5-min Rain = 0
KST3 241019Z 17015KT 18/10 A2983 RMK A01 T01760101  RH  062%=      5-min Rain = 0
KST3 241020Z 17012KT 18/10 A2983 RMK A01 T01760101  RH  062%=      5-min Rain = 0
KST3 241021Z 17014G19KT 18/10 A2983 RMK A01 T01760101  RH  062%=      5-min Rain = 0
KST3 241022Z 17013KT 18/10 A2983 RMK A01 T01760101  RH  061%=      5-min Rain = 0
KST3 241023Z 17015KT 18/10 A2983 RMK A01 T01760101  RH  061%=      5-min Rain = 0
KST3 241024Z 17015G20KT 18/10 A2983 RMK A01 T01760101  RH  061%=      5-min Rain = 0
KST3 241025Z 18014KT 18/10 A2983 RMK A01 T01760101  RH  061%=      5-min Rain = 0
KST3 241026Z 17015KT 18/10 A2983 RMK A01 T01750100  RH  061%=      5-min Rain = 0
KST3 241027Z 17015KT 18/10 A2983 RMK A01 T01760101  RH  061%=      5-min Rain = 0
KST3 241028Z 18014KT 18/10 A2983 RMK A01 T01760101  RH  061%=      5-min Rain = 0
KST3 241029Z 17016KT 18/10 A2983 RMK A01 T01760100  RH  061%=      5-min Rain = 0
KST3 241030Z 17016KT 18/10 A2982 RMK A01 T01760100  RH  061%=      5-min Rain = 0
KST3 241031Z 17016KT 18/10 A2983 RMK A01 T01760100  RH  061%=      5-min Rain = 0
KST3 241032Z 17014G19KT 18/10 A2983 RMK A01 T01760100  RH  061%=      5-min Rain = 0
KST3 241033Z 17012KT 18/10 A2983 RMK A01 T01760100  RH  061%=      5-min Rain = 0
KST3 241034Z 17015KT 18/10 A2983 RMK A01 T01760100  RH  061%=      5-min Rain = 0
KST3 241035Z 17014KT 18/10 A2983 RMK A01 T01750100  RH  061%=      5-min Rain = 0
KST3 241036Z 17014KT 18/10 A2983 RMK A01 T01750100  RH  061%=      5-min Rain = 0
KST3 241037Z 17013KT 18/10 A2983 RMK A01 T01750100  RH  061%=      5-min Rain = 0
KST3 241038Z 17012KT 18/10 A2983 RMK A01 T01760100  RH  061%=      5-min Rain = 0
KST3 241039Z 17014KT 18/10 A2983 RMK A01 T01750100  RH  061%=      5-min Rain = 0
KST3 241040Z 17014KT 18/10 A2983 RMK A01 T01750100  RH  061%=      5-min Rain = 0
KST3 241041Z 17013KT 18/10 A2983 RMK A01 T01750099  RH  061%=      5-min Rain = 0
KST3 241042Z 17015KT 18/10 A2982 RMK A01 T01750100  RH  061%=      5-min Rain = 0
KST3 241043Z 17014KT 18/10 A2982 RMK A01 T01750099  RH  061%=      5-min Rain = 0
KST3 241044Z 17012KT 18/10 A2982 RMK A01 T01760099  RH  061%=      5-min Rain = 0
KST3 241045Z 17015KT 18/10 A2982 RMK A01 T01760099  RH  061%=      5-min Rain = 0
KST3 241046Z 17016G21KT 18/10 A2982 RMK A01 T01760099  RH  061%=      5-min Rain = 0
KST3 241047Z 17016KT 18/10 A2982 RMK A01 T01770099  RH  060%=      5-min Rain = 0
KST3 241048Z 17014KT 18/10 A2982 RMK A01 T01770099  RH  060%=      5-min Rain = 0
KST3 241049Z 18016KT 18/10 A2982 RMK A01 T01760099  RH  060%=      5-min Rain = 0
KST3 241050Z 17015KT 18/10 A2982 RMK A01 T01760098  RH  060%=      5-min Rain = 0
KST3 241051Z 18015KT 18/10 A2982 RMK A01 T01760099  RH  060%=      5-min Rain = 0
KST3 241052Z 17014KT 18/10 A2982 RMK A01 T01760098  RH  060%=      5-min Rain = 0
KST3 241053Z 17014KT 18/10 A2982 RMK A01 T01760099  RH  060%=      5-min Rain = 0
KST3 241054Z 17015KT 18/10 A2982 RMK A01 T01760099  RH  060%=      5-min Rain = 0
KST3 241055Z 17016KT 18/10 A2982 RMK A01 T01760099  RH  060%=      5-min Rain = 0
KST3 241056Z 18015KT 18/10 A2982 RMK A01 T01760099  RH  060%=      5-min Rain = 0
KST3 241057Z 18015KT 18/10 A2982 RMK A01 T01760098  RH  060%=      5-min Rain = 0
KST3 241058Z 18014KT 18/10 A2982 RMK A01 T01760098  RH  060%=      5-min Rain = 0
KST3 241059Z 18014KT 18/10 A2982 RMK A01 T01750098  RH  060%=      5-min Rain = 0
KST3 241100Z 18014KT 18/10 A2982 RMK A01 T01750098  RH  061%=      5-min Rain = 0
KST3 241101Z 18012KT 18/10 A2982 RMK A01 T01750098  RH  061%=      5-min Rain = 0
KST3 241102Z 18012KT 17/10 A2982 RMK A01 T01740098  RH  061%=      5-min Rain = 0
KST3 241103Z 19012KT 17/10 A2982 RMK A01 T01740098  RH  061%=      5-min Rain = 0
KST3 241104Z 18011KT 17/10 A2982 RMK A01 T01730098  RH  061%=      5-min Rain = 0
KST3 241105Z 18011KT 17/10 A2982 RMK A01 T01730098  RH  061%=      5-min Rain = 0
KST3 241106Z 18012KT 17/10 A2982 RMK A01 T01730098  RH  061%=      5-min Rain = 0
KST3 241107Z 18014KT 17/10 A2982 RMK A01 T01730098  RH  061%=      5-min Rain = 0
KST3 241108Z 18012KT 17/10 A2982 RMK A01 T01730097  RH  061%=      5-min Rain = 0
KST3 241109Z 18012KT 17/10 A2982 RMK A01 T01740097  RH  061%=      5-min Rain = 0
KST3 241110Z 18012KT 17/10 A2982 RMK A01 T01740097  RH  061%=      5-min Rain = 0
KST3 241111Z 17012KT 17/10 A2982 RMK A01 T01740097  RH  061%=      5-min Rain = 0
KST3 241112Z 18012KT 17/10 A2982 RMK A01 T01740097  RH  061%=      5-min Rain = 0
KST3 241113Z 17012KT 17/10 A2981 RMK A01 T01740097  RH  061%=      5-min Rain = 0
KST3 241114Z 17012KT 17/10 A2981 RMK A01 T01740097  RH  061%=      5-min Rain = 0
KST3 241115Z 17013KT 17/10 A2981 RMK A01 T01730097  RH  061%=      5-min Rain = 0
KST3 241116Z 18012KT 17/10 A2981 RMK A01 T01730097  RH  061%=      5-min Rain = 0
KST3 241117Z 17011KT 17/10 A2981 RMK A01 T01730097  RH  061%=      5-min Rain = 0
KST3 241118Z 18014KT 17/10 A2982 RMK A01 T01730097  RH  061%=      5-min Rain = 0
KST3 241119Z 18012KT 17/10 A2982 RMK A01 T01740097  RH  061%=      5-min Rain = 0
KST3 241120Z 18013KT 17/10 A2982 RMK A01 T01730096  RH  060%=      5-min Rain = 0
KST3 241121Z 18012KT 17/10 A2982 RMK A01 T01740096  RH  060%=      5-min Rain = 0
KST3 241122Z 18011KT 17/10 A2982 RMK A01 T01740096  RH  060%=      5-min Rain = 0
KST3 241123Z 19012KT 17/10 A2982 RMK A01 T01740096  RH  060%=      5-min Rain = 0
KST3 241124Z 18010KT 17/10 A2982 RMK A01 T01740095  RH  060%=      5-min Rain = 0
KST3 241125Z 19009G14KT 17/10 A2982 RMK A01 T01740096  RH  060%=      5-min Rain = 0
KST3 241126Z 18011KT 17/10 A2982 RMK A01 T01730095  RH  060%=      5-min Rain = 0
KST3 241127Z 17010KT 17/10 A2982 RMK A01 T01730095  RH  060%=      5-min Rain = 0
KST3 241128Z 18011KT 17/10 A2982 RMK A01 T01720095  RH  061%=      5-min Rain = 0
KST3 241129Z 18010KT 17/10 A2982 RMK A01 T01720095  RH  061%=      5-min Rain = 0
KST3 241130Z 18010KT 17/10 A2982 RMK A01 T01710095  RH  061%=      5-min Rain = 0
KST3 241131Z 19009KT 17/10 A2982 RMK A01 T01710095  RH  061%=      5-min Rain = 0
KST3 241132Z 18011KT 17/10 A2982 RMK A01 T01700095  RH  061%=      5-min Rain = 0
KST3 241133Z 18009KT 17/09 A2982 RMK A01 T01710094  RH  061%=      5-min Rain = 0
KST3 241134Z 19008KT 17/10 A2982 RMK A01 T01710095  RH  061%=      5-min Rain = 0
KST3 241135Z 19008KT 17/09 A2982 RMK A01 T01700094  RH  061%=      5-min Rain = 0
KST3 241136Z 19008KT 17/09 A2982 RMK A01 T01700094  RH  061%=      5-min Rain = 0
KST3 241137Z 20008KT 17/09 A2982 RMK A01 T01690094  RH  061%=      5-min Rain = 0
KST3 241138Z 19009KT 17/09 A2982 RMK A01 T01680094  RH  061%=      5-min Rain = 0
KST3 241139Z 20008KT 17/09 A2982 RMK A01 T01680094  RH  062%=      5-min Rain = 0
KST3 241140Z 20007KT 17/09 A2982 RMK A01 T01670094  RH  062%=      5-min Rain = 0
KST3 241141Z 20006KT 17/09 A2982 RMK A01 T01670094  RH  062%=      5-min Rain = 0
KST3 241142Z 21007KT 17/09 A2982 RMK A01 T01660093  RH  062%=      5-min Rain = 0
KST3 241143Z 21007KT 16/09 A2982 RMK A01 T01640093  RH  063%=      5-min Rain = 0
KST3 241144Z 20008KT 16/09 A2982 RMK A01 T01610093  RH  064%=      5-min Rain = 0
KST3 241145Z 20008KT 16/09 A2982 RMK A01 T01600092  RH  064%=      5-min Rain = 0
KST3 241146Z 20009KT 16/09 A2982 RMK A01 T01600093  RH  064%=      5-min Rain = 0
KST3 241147Z 20008KT 16/09 A2982 RMK A01 T01600093  RH  064%=      5-min Rain = 0
KST3 241148Z 20009KT 16/09 A2982 RMK A01 T01600093  RH  064%=      5-min Rain = 0
KST3 241149Z 20010KT 16/09 A2982 RMK A01 T01600093  RH  064%=      5-min Rain = 0
KST3 241150Z 20009KT 16/09 A2982 RMK A01 T01610093  RH  064%=      5-min Rain = 0
KST3 241151Z 20009KT 16/09 A2982 RMK A01 T01620093  RH  064%=      5-min Rain = 0
KST3 241152Z 20010KT 16/09 A2982 RMK A01 T01620093  RH  063%=      5-min Rain = 0
KST3 241153Z 20009KT 16/09 A2982 RMK A01 T01630093  RH  063%=      5-min Rain = 0
KST3 241154Z 20010KT 16/09 A2982 RMK A01 T01630093  RH  063%=      5-min Rain = 0
KST3 241155Z 20009KT 16/09 A2982 RMK A01 T01640093  RH  063%=      5-min Rain = 0
KST3 241156Z 21009KT 16/09 A2982 RMK A01 T01640093  RH  063%=      5-min Rain = 0
KST3 241157Z 20011KT 16/09 A2982 RMK A01 T01640093  RH  063%=      5-min Rain = 0
KST3 241158Z 21010KT 16/09 A2982 RMK A01 T01640093  RH  063%=      5-min Rain = 0
KST3 241159Z 20012KT 17/09 A2982 RMK A01 T01650093  RH  063%=      5-min Rain = 0
KST3 241200Z 20011KT 17/09 A2982 RMK A01 T01660094  RH  062%=      5-min Rain = 0
KST3 241201Z 20011KT 17/09 A2982 RMK A01 T01670093  RH  062%=      5-min Rain = 0
KST3 241202Z 20012KT 17/09 A2982 RMK A01 T01680093  RH  061%=      5-min Rain = 0
KST3 241203Z 20012KT 17/09 A2982 RMK A01 T01690093  RH  061%=      5-min Rain = 0
KST3 241204Z 20010G15KT 17/09 A2982 RMK A01 T01690093  RH  061%=      5-min Rain = 0
KST3 241205Z 20013KT 17/09 A2982 RMK A01 T01700093  RH  061%=      5-min Rain = 0
KST3 241206Z 20013KT 17/09 A2982 RMK A01 T01700093  RH  060%=      5-min Rain = 0
KST3 241207Z 21013KT 17/09 A2982 RMK A01 T01710093  RH  060%=      5-min Rain = 0
KST3 241208Z 21011KT 17/09 A2982 RMK A01 T01710092  RH  060%=      5-min Rain = 0
KST3 241209Z 20012KT 17/09 A2982 RMK A01 T01720092  RH  059%=      5-min Rain = 0
KST3 241210Z 21011KT 17/09 A2982 RMK A01 T01720092  RH  059%=      5-min Rain = 0
KST3 241211Z 21010KT 17/09 A2982 RMK A01 T01720092  RH  060%=      5-min Rain = 0
KST3 241212Z 20010G15KT 17/09 A2982 RMK A01 T01710092  RH  060%=      5-min Rain = 0
KST3 241213Z 20009KT 17/09 A2982 RMK A01 T01700093  RH  060%=      5-min Rain = 0
KST3 241214Z 19013KT 17/09 A2982 RMK A01 T01690092  RH  060%=      5-min Rain = 0
KST3 241215Z 20013KT 17/09 A2982 RMK A01 T01700092  RH  060%=      5-min Rain = 0
KST3 241216Z 19014KT 17/09 A2982 RMK A01 T01710092  RH  060%=      5-min Rain = 0
KST3 241217Z 19012KT 17/09 A2982 RMK A01 T01720092  RH  059%=      5-min Rain = 0
KST3 241218Z 19010KT 17/09 A2982 RMK A01 T01730092  RH  059%=      5-min Rain = 0
KST3 241219Z 19012KT 17/09 A2982 RMK A01 T01730092  RH  059%=      5-min Rain = 0
KST3 241220Z 19012KT 17/09 A2982 RMK A01 T01730092  RH  059%=      5-min Rain = 0
KST3 241221Z 19011KT 17/09 A2982 RMK A01 T01740092  RH  059%=      5-min Rain = 0
KST3 241222Z 19012KT 17/09 A2982 RMK A01 T01740093  RH  059%=      5-min Rain = 0
KST3 241223Z 19012KT 17/09 A2982 RMK A01 T01740093  RH  059%=      5-min Rain = 0
KST3 241224Z 19013KT 18/09 A2982 RMK A01 T01750092  RH  058%=      5-min Rain = 0
KST3 241225Z 19012KT 18/09 A2982 RMK A01 T01750093  RH  058%=      5-min Rain = 0
KST3 241226Z 19011KT 18/09 A2982 RMK A01 T01750093  RH  058%=      5-min Rain = 0
KST3 241227Z 19010KT 18/09 A2982 RMK A01 T01760093  RH  058%=      5-min Rain = 0
KST3 241228Z 19011KT 18/09 A2982 RMK A01 T01760093  RH  058%=      5-min Rain = 0
KST3 241229Z 19012KT 18/09 A2982 RMK A01 T01750093  RH  059%=      5-min Rain = 0
KST3 241230Z 19010KT 18/09 A2982 RMK A01 T01750094  RH  059%=      5-min Rain = 0
KST3 241231Z 18012KT 17/09 A2982 RMK A01 T01740094  RH  059%=      5-min Rain = 0
KST3 241232Z 18012KT 17/09 A2981 RMK A01 T01730094  RH  059%=      5-min Rain = 0
KST3 241233Z 18012KT 17/09 A2981 RMK A01 T01730094  RH  059%=      5-min Rain = 0
KST3 241234Z 18011KT 17/09 A2981 RMK A01 T01730094  RH  059%=      5-min Rain = 0
KST3 241235Z 18011KT 17/09 A2981 RMK A01 T01740094  RH  059%=      5-min Rain = 0
KST3 241236Z 19011KT 18/09 A2982 RMK A01 T01750094  RH  059%=      5-min Rain = 0
KST3 241237Z 19010KT 18/09 A2982 RMK A01 T01750094  RH  059%=      5-min Rain = 0
KST3 241238Z 19011KT 18/09 A2982 RMK A01 T01760094  RH  059%=      5-min Rain = 0
KST3 241239Z 19010KT 18/09 A2982 RMK A01 T01770094  RH  058%=      5-min Rain = 0
KST3 241240Z 19010KT 18/09 A2982 RMK A01 T01770094  RH  058%=      5-min Rain = 0
KST3 241241Z 19009KT 18/09 A2982 RMK A01 T01780094  RH  058%=      5-min Rain = 0
KST3 241242Z 19010KT 18/09 A2982 RMK A01 T01780094  RH  058%=      5-min Rain = 0
KST3 241243Z 19010KT 18/09 A2982 RMK A01 T01780094  RH  058%=      5-min Rain = 0
KST3 241244Z 19010KT 18/10 A2982 RMK A01 T01790095  RH  058%=      5-min Rain = 0
KST3 241245Z 19010KT 18/10 A2982 RMK A01 T01780095  RH  058%=      5-min Rain = 0
KST3 241246Z 19011KT 18/10 A2982 RMK A01 T01790095  RH  058%=      5-min Rain = 0
KST3 241247Z 19010KT 18/10 A2982 RMK A01 T01800095  RH  058%=      5-min Rain = 0
KST3 241248Z 20011KT 18/10 A2982 RMK A01 T01800095  RH  057%=      5-min Rain = 0
KST3 241249Z 20012KT 18/10 A2982 RMK A01 T01810096  RH  057%=      5-min Rain = 0
KST3 241250Z 20010KT 18/10 A2982 RMK A01 T01820095  RH  057%=      5-min Rain = 0
KST3 241251Z 20011KT 18/10 A2983 RMK A01 T01830095  RH  057%=      5-min Rain = 0
KST3 241252Z 20011KT 18/10 A2983 RMK A01 T01830096  RH  057%=      5-min Rain = 0
KST3 241253Z 20009KT 18/10 A2983 RMK A01 T01830096  RH  057%=      5-min Rain = 0
KST3 241254Z 20010KT 18/10 A2983 RMK A01 T01840098  RH  057%=      5-min Rain = 0
KST3 241255Z 20013KT 19/10 A2983 RMK A01 T01850098  RH  057%=      5-min Rain = 0
KST3 241256Z 20012KT 19/10 A2982 RMK A01 T01860097  RH  056%=      5-min Rain = 0
KST3 241257Z 20011KT 19/10 A2982 RMK A01 T01860098  RH  056%=      5-min Rain = 0
KST3 241258Z 19010KT 19/10 A2982 RMK A01 T01880099  RH  056%=      5-min Rain = 0
KST3 241259Z 19010KT 19/10 A2982 RMK A01 T01880099  RH  056%=      5-min Rain = 0
KST3 241300Z 19013KT 19/10 A2982 RMK A01 T01890099  RH  056%=      5-min Rain = 0
KST3 241301Z 19013KT 19/10 A2982 RMK A01 T01890099  RH  056%=      5-min Rain = 0
KST3 241302Z 19015KT 19/10 A2982 RMK A01 T01890098  RH  056%=      5-min Rain = 0
KST3 241303Z 19015KT 19/10 A2982 RMK A01 T01890098  RH  056%=      5-min Rain = 0
KST3 241304Z 19013G18KT 19/10 A2982 RMK A01 T01890099  RH  056%=      5-min Rain = 0
KST3 241305Z 19014KT 19/10 A2982 RMK A01 T01900100  RH  056%=      5-min Rain = 0
KST3 241306Z 18016KT 19/10 A2982 RMK A01 T01900100  RH  056%=      5-min Rain = 0
KST3 241307Z 19016KT 19/10 A2982 RMK A01 T01910100  RH  056%=      5-min Rain = 0
KST3 241308Z 19015KT 19/10 A2982 RMK A01 T01910101  RH  056%=      5-min Rain = 0
KST3 241309Z 19015KT 19/10 A2982 RMK A01 T01920102  RH  056%=      5-min Rain = 0
KST3 241310Z 19017KT 19/10 A2981 RMK A01 T01920102  RH  056%=      5-min Rain = 0
KST3 241311Z 19015G20KT 19/10 A2982 RMK A01 T01930102  RH  056%=      5-min Rain = 0
KST3 241312Z 18017KT 19/10 A2981 RMK A01 T01930103  RH  056%=      5-min Rain = 0
KST3 241313Z 19017KT 19/10 A2981 RMK A01 T01930103  RH  056%=      5-min Rain = 0
KST3 241314Z 19016KT 19/10 A2981 RMK A01 T01940104  RH  056%=      5-min Rain = 0
KST3 241315Z 19015G21KT 20/11 A2981 RMK A01 T01950105  RH  056%=      5-min Rain = 0
KST3 241316Z 19017G22KT 20/11 A2981 RMK A01 T01950106  RH  056%=      5-min Rain = 0
KST3 241317Z 19018KT 20/11 A2981 RMK A01 T01960106  RH  056%=      5-min Rain = 0
KST3 241318Z 19022G27KT 20/11 A2981 RMK A01 T01960106  RH  056%=      5-min Rain = 0
KST3 241319Z 19021G27KT 20/11 A2981 RMK A01 T01960107  RH  056%=      5-min Rain = 0
KST3 241320Z 19021KT 20/11 A2981 RMK A01 T01970108  RH  056%=      5-min Rain = 0
KST3 241321Z 19019KT 20/11 A2981 RMK A01 T01970108  RH  056%=      5-min Rain = 0
KST3 241322Z 20022KT 20/11 A2981 RMK A01 T01980109  RH  056%=      5-min Rain = 0
KST3 241323Z 19019KT 20/11 A2981 RMK A01 T01980109  RH  056%=      5-min Rain = 0
KST3 241324Z 19020G25KT 20/11 A2981 RMK A01 T01990110  RH  056%=      5-min Rain = 0
KST3 241325Z 19020KT 20/11 A2981 RMK A01 T01990110  RH  056%=      5-min Rain = 0
KST3 241326Z 20019KT 20/11 A2981 RMK A01 T01990110  RH  056%=      5-min Rain = 0
KST3 241327Z 20018KT 20/11 A2981 RMK A01 T01990110  RH  056%=      5-min Rain = 0
KST3 241328Z 20019KT 20/11 A2981 RMK A01 T02000111  RH  057%=      5-min Rain = 0
KST3 241329Z 20020KT 20/11 A2981 RMK A01 T02010112  RH  057%=      5-min Rain = 0
KST3 241330Z 20022KT 20/11 A2981 RMK A01 T02010113  RH  057%=      5-min Rain = 0
KST3 241331Z 20020KT 20/11 A2981 RMK A01 T02020113  RH  057%=      5-min Rain = 0
KST3 241332Z 19020G26KT 20/11 A2981 RMK A01 T02030114  RH  057%=      5-min Rain = 0
KST3 241333Z 20022KT 20/11 A2981 RMK A01 T02030114  RH  056%=      5-min Rain = 0
KST3 241334Z 20021KT 20/12 A2981 RMK A01 T02040115  RH  057%=      5-min Rain = 0
KST3 241335Z 20018G24KT 20/12 A2981 RMK A01 T02040116  RH  057%=      5-min Rain = 0
KST3 241336Z 20020G26KT 21/12 A2981 RMK A01 T02050117  RH  057%=      5-min Rain = 0
KST3 241337Z 20024G29KT 21/12 A2981 RMK A01 T02060117  RH  056%=      5-min Rain = 0
KST3 241338Z 20023KT 21/12 A2981 RMK A01 T02060116  RH  056%=      5-min Rain = 0
KST3 241339Z 20021KT 21/12 A2981 RMK A01 T02060117  RH  056%=      5-min Rain = 0
KST3 241340Z 20019G24KT 21/12 A2981 RMK A01 T02070117  RH  056%=      5-min Rain = 0
KST3 241341Z 21022G27KT 21/12 A2981 RMK A01 T02070118  RH  057%=      5-min Rain = 0
KST3 241342Z 21023KT 21/12 A2981 RMK A01 T02080118  RH  056%=      5-min Rain = 0
KST3 241343Z 20022KT 21/12 A2981 RMK A01 T02080118  RH  056%=      5-min Rain = 0
KST3 241344Z 21023KT 21/12 A2982 RMK A01 T02080118  RH  056%=      5-min Rain = 0
KST3 241345Z 22021G26KT 21/12 A2982 RMK A01 T02090119  RH  056%=      5-min Rain = 0
KST3 241346Z 21022KT 21/12 A2982 RMK A01 T02090118  RH  056%=      5-min Rain = 0
KST3 241347Z 22017KT 21/12 A2982 RMK A01 T02100119  RH  056%=      5-min Rain = 0
KST3 241348Z 22018KT 21/12 A2982 RMK A01 T02110120  RH  056%=      5-min Rain = 0
KST3 241349Z 21017G22KT 21/12 A2983 RMK A01 T02120120  RH  056%=      5-min Rain = 0
KST3 241350Z 23018KT 21/12 A2983 RMK A01 T02130121  RH  056%=      5-min Rain = 0
KST3 241351Z 23020G25KT 21/12 A2983 RMK A01 T02130120  RH  055%=      5-min Rain = 0
KST3 241352Z 23021KT 21/12 A2983 RMK A01 T02130120  RH  055%=      5-min Rain = 0
KST3 241353Z 23019KT 21/12 A2983 RMK A01 T02130120  RH  055%=      5-min Rain = 0
KST3 241354Z 24020KT 21/12 A2983 RMK A01 T02120121  RH  056%=      5-min Rain = 0
KST3 241355Z 23017KT 21/12 A2983 RMK A01 T02130121  RH  056%=      5-min Rain = 0
KST3 241356Z 24015KT 21/12 A2983 RMK A01 T02130121  RH  056%=      5-min Rain = 0
KST3 241357Z 25015G21KT 21/12 A2983 RMK A01 T02130122  RH  056%=      5-min Rain = 0
KST3 241358Z 24017KT 21/12 A2983 RMK A01 T02130122  RH  056%=      5-min Rain = 0
KST3 241359Z 24018KT 21/12 A2983 RMK A01 T02140122  RH  056%=      5-min Rain = 0
KST3 241400Z 23016KT 21/12 A2983 RMK A01 T02120122  RH  056%=      5-min Rain = 0
KST3 241401Z 23019G25KT 21/12 A2983 RMK A01 T02130123  RH  057%=      5-min Rain = 0
KST3 241402Z 23019G24KT 21/12 A2983 RMK A01 T02130122  RH  056%=      5-min Rain = 0
KST3 241403Z 23020KT 21/12 A2983 RMK A01 T02120123  RH  057%=      5-min Rain = 0
KST3 241404Z 24017KT 21/12 A2983 RMK A01 T02130124  RH  057%=      5-min Rain = 0
KST3 241405Z 23020KT 21/13 A2983 RMK A01 T02130125  RH  057%=      5-min Rain = 0
KST3 241406Z 23018KT 21/12 A2983 RMK A01 T02140124  RH  056%=      5-min Rain = 0
KST3 241407Z 22016KT 21/12 A2983 RMK A01 T02140124  RH  057%=      5-min Rain = 0
KST3 241408Z 22017KT 22/13 A2983 RMK A01 T02150126  RH  057%=      5-min Rain = 0
KST3 241409Z 22019KT 22/13 A2983 RMK A01 T02160125  RH  056%=      5-min Rain = 0
KST3 241410Z 23019KT 22/12 A2983 RMK A01 T02160124  RH  056%=      5-min Rain = 0
KST3 241411Z 22018KT 22/13 A2983 RMK A01 T02150125  RH  056%=      5-min Rain = 0
KST3 241412Z 23018KT 22/13 A2983 RMK A01 T02150126  RH  057%=      5-min Rain = 0
KST3 241413Z 22018KT 22/13 A2983 RMK A01 T02160126  RH  056%=      5-min Rain = 0
KST3 241414Z 21019KT 22/13 A2983 RMK A01 T02160125  RH  056%=      5-min Rain = 0
KST3 241415Z 22018KT 22/13 A2983 RMK A01 T02160126  RH  056%=      5-min Rain = 0
KST3 241416Z 22020KT 22/13 A2983 RMK A01 T02160127  RH  057%=      5-min Rain = 0
KST3 241417Z 22019G24KT 22/13 A2983 RMK A01 T02160125  RH  056%=      5-min Rain = 0
KST3 241418Z 22022KT 21/12 A2983 RMK A01 T02140124  RH  056%=      5-min Rain = 0
KST3 241419Z 22018KT 21/13 A2983 RMK A01 T02130125  RH  057%=      5-min Rain = 0
KST3 241420Z 24017KT 21/13 A2983 RMK A01 T02140125  RH  057%=      5-min Rain = 0
KST3 241421Z 23018KT 21/13 A2983 RMK A01 T02140125  RH  057%=      5-min Rain = 0
KST3 241422Z 24016KT 22/13 A2983 RMK A01 T02150125  RH  057%=      5-min Rain = 0
KST3 241423Z 24013KT 22/13 A2983 RMK A01 T02150126  RH  057%=      5-min Rain = 0
KST3 241424Z 23013G18KT 22/13 A2984 RMK A01 T02180129  RH  057%=      5-min Rain = 0
KST3 241425Z 23018KT 22/13 A2984 RMK A01 T02200127  RH  055%=      5-min Rain = 0
KST3 241426Z 23015KT 22/13 A2983 RMK A01 T02200126  RH  055%=      5-min Rain = 0
KST3 241427Z 24015KT 22/13 A2983 RMK A01 T02200127  RH  056%=      5-min Rain = 0
KST3 241428Z 24019KT 22/13 A2983 RMK A01 T02190126  RH  055%=      5-min Rain = 0
KST3 241429Z 23017KT 22/13 A2983 RMK A01 T02180126  RH  056%=      5-min Rain = 0
KST3 241430Z 23014KT 22/13 A2983 RMK A01 T02190128  RH  056%=      5-min Rain = 0
KST3 241431Z 23017G22KT 22/13 A2983 RMK A01 T02210129  RH  056%=      5-min Rain = 0
KST3 241432Z 23017KT 22/13 A2983 RMK A01 T02230126  RH  054%=      5-min Rain = 0
KST3 241433Z 23015KT 22/13 A2983 RMK A01 T02210127  RH  055%=      5-min Rain = 0
KST3 241434Z 23017KT 22/13 A2983 RMK A01 T02220128  RH  055%=      5-min Rain = 0
KST3 241435Z 23016KT 22/13 A2983 RMK A01 T02230127  RH  054%=      5-min Rain = 0
KST3 241436Z 23016KT 22/13 A2983 RMK A01 T02230127  RH  054%=      5-min Rain = 0
KST3 241437Z 24013KT 22/13 A2983 RMK A01 T02220128  RH  055%=      5-min Rain = 0
KST3 241438Z 23015KT 22/13 A2983 RMK A01 T02240128  RH  055%=      5-min Rain = 0
KST3 241439Z 23016KT 22/13 A2983 RMK A01 T02240128  RH  054%=      5-min Rain = 0
KST3 241440Z 23014KT 23/13 A2983 RMK A01 T02250128  RH  054%=      5-min Rain = 0
KST3 241441Z 22014KT 23/13 A2984 RMK A01 T02260127  RH  053%=      5-min Rain = 0
KST3 241442Z 22014KT 23/13 A2984 RMK A01 T02260126  RH  053%=      5-min Rain = 0
KST3 241443Z 22013KT 23/13 A2984 RMK A01 T02270128  RH  054%=      5-min Rain = 0
KST3 241444Z 23012KT 23/13 A2984 RMK A01 T02280129  RH  054%=      5-min Rain = 0
KST3 241445Z 23014KT 23/13 A2984 RMK A01 T02290130  RH  053%=      5-min Rain = 0
KST3 241446Z 24016KT 23/13 A2984 RMK A01 T02290126  RH  052%=      5-min Rain = 0
KST3 241447Z 24017KT 23/13 A2984 RMK A01 T02280127  RH  053%=      5-min Rain = 0
KST3 241448Z 24016KT 23/13 A2984 RMK A01 T02280126  RH  052%=      5-min Rain = 0
KST3 241449Z 23014KT 23/13 A2984 RMK A01 T02270127  RH  053%=      5-min Rain = 0
KST3 241450Z 22016G23KT 23/13 A2984 RMK A01 T02280127  RH  053%=      5-min Rain = 0
KST3 241451Z 21015G20KT 23/13 A2984 RMK A01 T02280125  RH  052%=      5-min Rain = 0
KST3 241452Z 21016KT 23/13 A2984 RMK A01 T02260126  RH  053%=      5-min Rain = 0
KST3 241453Z 22014KT 23/13 A2984 RMK A01 T02260126  RH  053%=      5-min Rain = 0
KST3 241454Z 23015KT 23/13 A2984 RMK A01 T02280127  RH  053%=      5-min Rain = 0
KST3 241455Z 22014KT 23/13 A2984 RMK A01 T02310129  RH  053%=      5-min Rain = 0
KST3 241456Z 22012KT 23/13 A2984 RMK A01 T02320128  RH  052%=      5-min Rain = 0
KST3 241457Z 21012KT 23/13 A2984 RMK A01 T02330129  RH  052%=      5-min Rain = 0
KST3 241458Z 23014KT 23/13 A2984 RMK A01 T02330127  RH  051%=      5-min Rain = 0
KST3 241459Z 22013KT 23/13 A2984 RMK A01 T02310126  RH  051%=      5-min Rain = 0
KST3 241500Z 22014KT 23/13 A2984 RMK A01 T02300128  RH  053%=      5-min Rain = 0
KST3 241501Z 22015KT 23/13 A2984 RMK A01 T02310127  RH  052%=      5-min Rain = 0
KST3 241502Z 21014KT 23/13 A2984 RMK A01 T02310126  RH  052%=      5-min Rain = 0
KST3 241503Z 20013KT 23/13 A2983 RMK A01 T02290126  RH  052%=      5-min Rain = 0
KST3 241504Z 21014KT 23/13 A2983 RMK A01 T02290126  RH  052%=      5-min Rain = 0
KST3 241505Z 23016KT 23/13 A2983 RMK A01 T02290126  RH  052%=      5-min Rain = 0
KST3 241506Z 24015KT 23/12 A2983 RMK A01 T02300124  RH  051%=      5-min Rain = 0
KST3 241507Z 25015KT 23/12 A2983 RMK A01 T02320123  RH  050%=      5-min Rain = 0
KST3 241508Z 23013KT 23/12 A2983 RMK A01 T02320124  RH  050%=      5-min Rain = 0
KST3 241509Z 24015KT 23/13 A2983 RMK A01 T02340128  RH  051%=      5-min Rain = 0
KST3 241510Z 24014KT 24/13 A2983 RMK A01 T02360128  RH  051%=      5-min Rain = 0
KST3 241511Z 23013KT 24/13 A2983 RMK A01 T02380127  RH  050%=      5-min Rain = 0
KST3 241512Z 23011KT 24/13 A2983 RMK A01 T02400127  RH  049%=      5-min Rain = 0
KST3 241513Z 22011G19KT 24/12 A2983 RMK A01 T02400123  RH  048%=      5-min Rain = 0
KST3 241514Z 22013KT 24/13 A2983 RMK A01 T02400128  RH  050%=      5-min Rain = 0
KST3 241515Z 21013KT 24/13 A2983 RMK A01 T02400126  RH  049%=      5-min Rain = 0
KST3 241516Z 22012KT 24/12 A2983 RMK A01 T02370124  RH  049%=      5-min Rain = 0
KST3 241517Z 21016KT 24/12 A2983 RMK A01 T02360122  RH  049%=      5-min Rain = 0
KST3 241518Z 23016G25KT 24/12 A2983 RMK A01 T02350123  RH  049%=      5-min Rain = 0
KST3 241519Z 24013KT 24/13 A2983 RMK A01 T02370127  RH  050%=      5-min Rain = 0
KST3 241520Z 22014KT 24/13 A2983 RMK A01 T02400126  RH  049%=      5-min Rain = 0
KST3 241521Z 21015KT 24/13 A2983 RMK A01 T02410125  RH  048%=      5-min Rain = 0
KST3 241522Z 21015KT 24/12 A2983 RMK A01 T02400123  RH  048%=      5-min Rain = 0
KST3 241523Z 22018KT 24/12 A2983 RMK A01 T02380121  RH  048%=      5-min Rain = 0
KST3 241524Z 22016KT 24/12 A2983 RMK A01 T02380120  RH  048%=      5-min Rain = 0
KST3 241525Z 22014KT 24/12 A2983 RMK A01 T02370121  RH  048%=      5-min Rain = 0
KST3 241526Z 21011KT 24/12 A2983 RMK A01 T02370122  RH  048%=      5-min Rain = 0
KST3 241527Z 21013KT 24/12 A2983 RMK A01 T02390123  RH  048%=      5-min Rain = 0
KST3 241528Z 21012KT 24/12 A2983 RMK A01 T02390120  RH  047%=      5-min Rain = 0
KST3 241529Z 23013KT 24/13 A2983 RMK A01 T02400125  RH  049%=      5-min Rain = 0
KST3 241530Z 24014KT 24/12 A2983 RMK A01 T02420121  RH  047%=      5-min Rain = 0
KST3 241531Z 24013KT 24/12 A2983 RMK A01 T02400119  RH  047%=      5-min Rain = 0
KST3 241532Z 23012KT 24/12 A2983 RMK A01 T02380120  RH  048%=      5-min Rain = 0
KST3 241533Z 22011KT 24/12 A2983 RMK A01 T02370122  RH  048%=      5-min Rain = 0
KST3 241534Z 22006KT 24/12 A2982 RMK A01 T02350124  RH  050%=      5-min Rain = 0
KST3 241535Z 24012KT 24/13 A2982 RMK A01 T02390128  RH  050%=      5-min Rain = 0
KST3 241536Z 24013KT 24/12 A2982 RMK A01 T02420122  RH  047%=      5-min Rain = 0
KST3 241537Z 23010KT 24/12 A2983 RMK A01 T02410121  RH  047%=      5-min Rain = 0
KST3 241538Z 22010KT 24/12 A2983 RMK A01 T02400120  RH  047%=      5-min Rain = 0
KST3 241539Z 23008KT 24/12 A2983 RMK A01 T02400120  RH  047%=      5-min Rain = 0
KST3 241540Z 24013KT 24/12 A2982 RMK A01 T02410118  RH  046%=      5-min Rain = 0
KST3 241541Z 22015KT 24/12 A2982 RMK A01 T02430119  RH  046%=      5-min Rain = 0
KST3 241542Z 22014KT 24/12 A2982 RMK A01 T02440118  RH  045%=      5-min Rain = 0
KST3 241543Z 21013KT 24/12 A2982 RMK A01 T02420117  RH  045%=      5-min Rain = 0
KST3 241544Z 22010KT 24/12 A2982 RMK A01 T02410116  RH  046%=      5-min Rain = 0
KST3 241545Z 22014KT 24/12 A2982 RMK A01 T02410116  RH  045%=      5-min Rain = 0
KST3 241546Z 22010KT 24/11 A2983 RMK A01 T02410114  RH  045%=      5-min Rain = 0
KST3 241547Z 21013KT 24/12 A2982 RMK A01 T02400115  RH  045%=      5-min Rain = 0
KST3 241548Z 21011KT 24/12 A2982 RMK A01 T02390116  RH  046%=      5-min Rain = 0
KST3 241549Z 24011KT 24/12 A2982 RMK A01 T02400117  RH  046%=      5-min Rain = 0
KST3 241550Z 24010KT 24/12 A2982 RMK A01 T02420117  RH  046%=      5-min Rain = 0
KST3 241551Z 23011KT 24/12 A2982 RMK A01 T02430119  RH  046%=      5-min Rain = 0
KST3 241552Z 23013KT 25/12 A2982 RMK A01 T02450116  RH  045%=      5-min Rain = 0
KST3 241553Z 23012KT 25/11 A2982 RMK A01 T02450114  RH  044%=      5-min Rain = 0
KST3 241554Z 24010KT 24/12 A2982 RMK A01 T02440116  RH  045%=      5-min Rain = 0
KST3 241555Z 22010KT 25/12 A2982 RMK A01 T02460117  RH  045%=      5-min Rain = 0
KST3 241556Z 22012KT 25/11 A2982 RMK A01 T02480113  RH  043%=      5-min Rain = 0
KST3 241557Z 24012KT 25/11 A2982 RMK A01 T02460112  RH  043%=      5-min Rain = 0
KST3 241558Z 23011KT 25/12 A2982 RMK A01 T02450115  RH  044%=      5-min Rain = 0
KST3 241559Z 22007KT 25/12 A2982 RMK A01 T02460115  RH  044%=      5-min Rain = 0
KST3 241600Z 23007G12KT 25/12 A2982 RMK A01 T02460117  RH  044%=      5-min Rain = 0
KST3 241601Z 25010G15KT 25/12 A2982 RMK A01 T02470117  RH  044%=      5-min Rain = 0
KST3 241602Z 24013KT 25/12 A2982 RMK A01 T02500115  RH  043%=      5-min Rain = 0
KST3 241603Z 24012KT 25/11 A2982 RMK A01 T02510111  RH  041%=      5-min Rain = 0
KST3 241604Z 24013KT 25/11 A2982 RMK A01 T02500112  RH  042%=      5-min Rain = 0
KST3 241605Z 25011KT 25/11 A2982 RMK A01 T02470112  RH  043%=      5-min Rain = 0
KST3 241606Z 26010KT 25/11 A2982 RMK A01 T02450112  RH  043%=      5-min Rain = 0
KST3 241607Z 25009KT 24/11 A2982 RMK A01 T02430114  RH  044%=      5-min Rain = 0
KST3 241608Z 25011KT 24/12 A2982 RMK A01 T02410116  RH  045%=      5-min Rain = 0
KST3 241609Z 25012KT 25/12 A2982 RMK A01 T02450118  RH  045%=      5-min Rain = 0
KST3 241610Z 24008KT 25/12 A2982 RMK A01 T02470116  RH  044%=      5-min Rain = 0
KST3 241611Z 26009KT 25/12 A2982 RMK A01 T02490117  RH  044%=      5-min Rain = 0
KST3 241612Z 26012KT 25/11 A2982 RMK A01 T02490113  RH  043%=      5-min Rain = 0
KST3 241613Z 26012KT 25/11 A2982 RMK A01 T02480112  RH  043%=      5-min Rain = 0
KST3 241614Z 24015KT 25/12 A2982 RMK A01 T02480115  RH  043%=      5-min Rain = 0
KST3 241615Z 23012KT 25/12 A2982 RMK A01 T02520115  RH  042%=      5-min Rain = 0
KST3 241616Z 24013KT 25/12 A2982 RMK A01 T02530115  RH  042%=      5-min Rain = 0
KST3 241617Z 24013KT 25/11 A2982 RMK A01 T02530114  RH  042%=      5-min Rain = 0
KST3 241618Z 23008KT 25/11 A2982 RMK A01 T02510110  RH  041%=      5-min Rain = 0
KST3 241619Z 23009KT 25/11 A2982 RMK A01 T02480110  RH  042%=      5-min Rain = 0
KST3 241620Z 24005KT 25/11 A2982 RMK A01 T02460107  RH  042%=      5-min Rain = 0
KST3 241621Z 26008G13KT 24/11 A2982 RMK A01 T02440109  RH  043%=      5-min Rain = 0
KST3 241622Z 25009KT 25/10 A2982 RMK A01 T02470103  RH  040%=      5-min Rain = 0
KST3 241623Z 23010G15KT 25/10 A2982 RMK A01 T02470104  RH  040%=      5-min Rain = 0
KST3 241624Z 22012KT 25/11 A2982 RMK A01 T02480107  RH  041%=      5-min Rain = 0
KST3 241625Z 23011KT 25/11 A2982 RMK A01 T02490107  RH  041%=      5-min Rain = 0
KST3 241626Z 23011KT 25/10 A2982 RMK A01 T02510098  RH  038%=      5-min Rain = 0
KST3 241627Z 20010KT 25/10 A2982 RMK A01 T02490096  RH  038%=      5-min Rain = 0
KST3 241628Z 19010KT 25/10 A2982 RMK A01 T02480101  RH  039%=      5-min Rain = 0
KST3 241629Z 21010G15KT 25/11 A2982 RMK A01 T02480105  RH  041%=      5-min Rain = 0
KST3 241630Z 21011KT 25/11 A2982 RMK A01 T02520110  RH  041%=      5-min Rain = 0
KST3 241631Z 22009KT 25/11 A2983 RMK A01 T02530109  RH  040%=      5-min Rain = 0
KST3 241632Z 22008KT 25/11 A2983 RMK A01 T02510110  RH  041%=      5-min Rain = 0
KST3 241633Z 21008KT 25/12 A2983 RMK A01 T02520117  RH  043%=      5-min Rain = 0
KST3 241634Z 23013KT 25/11 A2983 RMK A01 T02540112  RH  041%=      5-min Rain = 0
KST3 241635Z 23010KT 25/11 A2983 RMK A01 T02520112  RH  041%=      5-min Rain = 0
KST3 241636Z 22009KT 25/11 A2983 RMK A01 T02520112  RH  042%=      5-min Rain = 0
KST3 241637Z 23007KT 25/11 A2983 RMK A01 T02520113  RH  042%=      5-min Rain = 0
KST3 241638Z 24005KT 25/11 A2983 RMK A01 T02530114  RH  042%=      5-min Rain = 0
KST3 241639Z 21001KT 25/11 A2983 RMK A01 T02540113  RH  041%=      5-min Rain = 0
KST3 241640Z 24004KT 25/11 A2983 RMK A01 T02530113  RH  042%=      5-min Rain = 0
KST3 241641Z 21008G14KT 25/12 A2983 RMK A01 T02540116  RH  042%=      5-min Rain = 0
KST3 241642Z 24009KT 26/12 A2983 RMK A01 T02560115  RH  041%=      5-min Rain = 0
KST3 241643Z 24010KT 26/11 A2983 RMK A01 T02560114  RH  041%=      5-min Rain = 0
KST3 241644Z 26011KT 26/11 A2983 RMK A01 T02560111  RH  040%=      5-min Rain = 0
KST3 241645Z 25006KT 26/11 A2983 RMK A01 T02560114  RH  041%=      5-min Rain = 0
KST3 241646Z 24011KT 26/11 A2983 RMK A01 T02580114  RH  041%=      5-min Rain = 0
KST3 241647Z 24011KT 26/11 A2983 RMK A01 T02610110  RH  039%=      5-min Rain = 0
KST3 241648Z 25010KT 26/11 A2983 RMK A01 T02580107  RH  039%=      5-min Rain = 0
KST3 241649Z 22011KT 26/11 A2983 RMK A01 T02550108  RH  040%=      5-min Rain = 0
KST3 241650Z 22008KT 26/11 A2983 RMK A01 T02550109  RH  040%=      5-min Rain = 0
KST3 241651Z 24011KT 26/11 A2983 RMK A01 T02570112  RH  040%=      5-min Rain = 0
KST3 241652Z 23011KT 26/11 A2983 RMK A01 T02610114  RH  040%=      5-min Rain = 0
KST3 241653Z 22009KT 26/11 A2983 RMK A01 T02620112  RH  039%=      5-min Rain = 0
KST3 241654Z 23008KT 26/11 A2983 RMK A01 T02580108  RH  039%=      5-min Rain = 0
KST3 241655Z 23008KT 26/11 A2983 RMK A01 T02550111  RH  041%=      5-min Rain = 0
KST3 241656Z 20008KT 26/11 A2983 RMK A01 T02560113  RH  041%=      5-min Rain = 0
KST3 241657Z 17007KT 26/11 A2983 RMK A01 T02580113  RH  040%=      5-min Rain = 0
KST3 241658Z 19005KT 26/12 A2983 RMK A01 T02610116  RH  040%=      5-min Rain = 0
KST3 241659Z 20008KT 26/11 A2983 RMK A01 T02620111  RH  039%=      5-min Rain = 0
KST3 241700Z 20009KT 26/11 A2983 RMK A01 T02600110  RH  039%=      5-min Rain = 0
KST3 241701Z 24009KT 26/11 A2983 RMK A01 T02590111  RH  040%=      5-min Rain = 0
KST3 241702Z 26007KT 26/11 A2983 RMK A01 T02610106  RH  038%=      5-min Rain = 0
KST3 241703Z 24007KT 26/11 A2983 RMK A01 T02600109  RH  039%=      5-min Rain = 0
KST3 241704Z 23010KT 26/11 A2983 RMK A01 T02620108  RH  038%=      5-min Rain = 0
KST3 241705Z 24011KT 26/11 A2983 RMK A01 T02620105  RH  037%=      5-min Rain = 0
KST3 241706Z 24009KT 26/11 A2983 RMK A01 T02590108  RH  039%=      5-min Rain = 0
KST3 241707Z 20008KT 26/11 A2983 RMK A01 T02590110  RH  039%=      5-min Rain = 0
KST3 241708Z 21005KT 26/11 A2983 RMK A01 T02590105  RH  038%=      5-min Rain = 0
KST3 241709Z 22008KT 26/11 A2983 RMK A01 T02580105  RH  038%=      5-min Rain = 0
KST3 241710Z 24007KT 26/10 A2983 RMK A01 T02570099  RH  037%=      5-min Rain = 0
KST3 241711Z 24007KT 26/10 A2983 RMK A01 T02560100  RH  038%=      5-min Rain = 0
KST3 241712Z 23008G13KT 26/11 A2983 RMK A01 T02570106  RH  039%=      5-min Rain = 0
KST3 241713Z 23012KT 26/11 A2982 RMK A01 T02600105  RH  038%=      5-min Rain = 0
KST3 241714Z 24010KT 26/10 A2982 RMK A01 T02620102  RH  037%=      5-min Rain = 0
KST3 241715Z 26008KT 26/10 A2982 RMK A01 T02590103  RH  037%=      5-min Rain = 0
KST3 241716Z 25006KT 26/11 A2982 RMK A01 T02610107  RH  038%=      5-min Rain = 0
KST3 241717Z 26006KT 26/10 A2982 RMK A01 T02630104  RH  037%=      5-min Rain = 0
KST3 241718Z 23012KT 26/10 A2982 RMK A01 T02610102  RH  037%=      5-min Rain = 0
KST3 241719Z 24011KT 26/10 A2982 RMK A01 T02610101  RH  036%=      5-min Rain = 0
KST3 241720Z 23010KT 26/10 A2982 RMK A01 T02620099  RH  036%=      5-min Rain = 0
KST3 241721Z 22006KT 26/10 A2983 RMK A01 T02590099  RH  036%=      5-min Rain = 0
KST3 241722Z 23002KT 26/10 A2982 RMK A01 T02590099  RH  036%=      5-min Rain = 0
KST3 241723Z 25002KT 26/10 A2982 RMK A01 T02590098  RH  036%=      5-min Rain = 0
KST3 241724Z 22002KT 26/10 A2982 RMK A01 T02600103  RH  037%=      5-min Rain = 0
KST3 241725Z 22005KT 26/10 A2982 RMK A01 T02630104  RH  037%=      5-min Rain = 0
KST3 241726Z 25006KT 27/10 A2982 RMK A01 T02650101  RH  036%=      5-min Rain = 0
KST3 241727Z 22008G13KT 26/11 A2982 RMK A01 T02640105  RH  037%=      5-min Rain = 0
KST3 241728Z 23009KT 27/10 A2982 RMK A01 T02670098  RH  034%=      5-min Rain = 0
KST3 241729Z 20009KT 27/10 A2982 RMK A01 T02660100  RH  035%=      5-min Rain = 0
KST3 241730Z 20006KT 27/10 A2982 RMK A01 T02670096  RH  034%=      5-min Rain = 0
KST3 241731Z 21008KT 27/10 A2982 RMK A01 T02650099  RH  035%=      5-min Rain = 0
KST3 241732Z 20009KT 27/10 A2982 RMK A01 T02650097  RH  035%=      5-min Rain = 0
KST3 241733Z 20010KT 27/11 A2982 RMK A01 T02660106  RH  037%=      5-min Rain = 0
KST3 241734Z 23009KT 27/10 A2982 RMK A01 T02700103  RH  035%=      5-min Rain = 0
KST3 241735Z 22007KT 27/10 A2982 RMK A01 T02710101  RH  034%=      5-min Rain = 0
KST3 241736Z 21004KT 27/10 A2982 RMK A01 T02700101  RH  035%=      5-min Rain = 0
KST3 241737Z 20005KT 27/10 A2982 RMK A01 T02690103  RH  035%=      5-min Rain = 0
KST3 241738Z 26006KT 27/11 A2982 RMK A01 T02690105  RH  036%=      5-min Rain = 0
KST3 241739Z 26008KT 27/10 A2982 RMK A01 T02720103  RH  035%=      5-min Rain = 0
KST3 241740Z 28009KT 27/10 A2982 RMK A01 T02710097  RH  033%=      5-min Rain = 0
KST3 241741Z 26007KT 27/10 A2982 RMK A01 T02670100  RH  035%=      5-min Rain = 0
KST3 241742Z 23009KT 27/10 A2982 RMK A01 T02660100  RH  035%=      5-min Rain = 0
KST3 241743Z 21008KT 27/10 A2982 RMK A01 T02670103  RH  036%=      5-min Rain = 0
KST3 241744Z 23009KT 27/11 A2982 RMK A01 T02720110  RH  036%=      5-min Rain = 0
KST3 241745Z 23010KT 28/11 A2982 RMK A01 T02750105  RH  035%=      5-min Rain = 0
KST3 241746Z 22007KT 27/10 A2982 RMK A01 T02710103  RH  035%=      5-min Rain = 0
KST3 241747Z 21003KT 27/10 A2982 RMK A01 T02680101  RH  035%=      5-min Rain = 0
KST3 241748Z 22004G9KT 27/11 A2982 RMK A01 T02670109  RH  037%=      5-min Rain = 0
KST3 241749Z 23008KT 27/11 A2982 RMK A01 T02700109  RH  037%=      5-min Rain = 0
KST3 241750Z 23005KT 27/11 A2982 RMK A01 T02700107  RH  036%=      5-min Rain = 0
KST3 241751Z 22007KT 27/11 A2982 RMK A01 T02680106  RH  036%=      5-min Rain = 0
KST3 241752Z 26008KT 27/11 A2982 RMK A01 T02670110  RH  037%=      5-min Rain = 0
KST3 241753Z 27006KT 27/11 A2982 RMK A01 T02670109  RH  037%=      5-min Rain = 0
KST3 241754Z 26006KT 27/11 A2982 RMK A01 T02660109  RH  037%=      5-min Rain = 0
KST3 241755Z 25006G11KT 26/11 A2982 RMK A01 T02640109  RH  038%=      5-min Rain = 0
KST3 241756Z 26009KT 27/11 A2982 RMK A01 T02650109  RH  038%=      5-min Rain = 0
KST3 241757Z 26007KT 27/11 A2982 RMK A01 T02660109  RH  037%=      5-min Rain = 0
KST3 241758Z 26005KT 27/11 A2982 RMK A01 T02670113  RH  038%=      5-min Rain = 0
KST3 241759Z 24005KT 27/11 A2982 RMK A01 T02690109  RH  037%=      5-min Rain = 0
KST3 241800Z 21004KT 27/11 A2982 RMK A01 T02680111  RH  037%=      5-min Rain = 0
KST3 241801Z 24005KT 27/11 A2982 RMK A01 T02690114  RH  038%=      5-min Rain = 0
KST3 241802Z 23005KT 27/11 A2982 RMK A01 T02710112  RH  037%=      5-min Rain = 0
KST3 241803Z 22005KT 27/11 A2982 RMK A01 T02700111  RH  037%=      5-min Rain = 0
KST3 241804Z 25005KT 27/11 A2982 RMK A01 T02700111  RH  037%=      5-min Rain = 0
KST3 241805Z 25002KT 27/11 A2982 RMK A01 T02690112  RH  037%=      5-min Rain = 0
KST3 241806Z 23002KT 27/11 A2982 RMK A01 T02680108  RH  037%=      5-min Rain = 0
KST3 241807Z 21004KT 27/11 A2982 RMK A01 T02670110  RH  038%=      5-min Rain = 0
KST3 241808Z 22003KT 27/11 A2982 RMK A01 T02690114  RH  038%=      5-min Rain = 0
KST3 241809Z 23008KT 27/12 A2982 RMK A01 T02710115  RH  038%=      5-min Rain = 0
KST3 241810Z 22008KT 27/12 A2982 RMK A01 T02740115  RH  037%=      5-min Rain = 0
KST3 241811Z 21010KT 28/12 A2982 RMK A01 T02770118  RH  037%=      5-min Rain = 0
KST3 241812Z 21008KT 28/12 A2982 RMK A01 T02800117  RH  036%=      5-min Rain = 0
KST3 241813Z 22005KT 28/12 A2982 RMK A01 T02790118  RH  037%=      5-min Rain = 0
KST3 241814Z 25010KT 28/12 A2981 RMK A01 T02810122  RH  037%=      5-min Rain = 0
KST3 241815Z 27009KT 28/12 A2981 RMK A01 T02830121  RH  037%=      5-min Rain = 0
KST3 241816Z 29010KT 28/12 A2981 RMK A01 T02820121  RH  037%=      5-min Rain = 0
KST3 241817Z 28011KT 28/12 A2981 RMK A01 T02780122  RH  038%=      5-min Rain = 0
KST3 241818Z 27010KT 28/12 A2981 RMK A01 T02760123  RH  039%=      5-min Rain = 0
KST3 241819Z 28007KT 27/12 A2981 RMK A01 T02740121  RH  039%=      5-min Rain = 0
KST3 241820Z 30006KT 27/12 A2981 RMK A01 T02710122  RH  040%=      5-min Rain = 0
KST3 241821Z 28005KT 27/12 A2981 RMK A01 T02710122  RH  040%=      5-min Rain = 0
KST3 241822Z 26007G13KT 27/12 A2981 RMK A01 T02710124  RH  040%=      5-min Rain = 0
KST3 241823Z 25009KT 27/12 A2981 RMK A01 T02720123  RH  040%=      5-min Rain = 0
KST3 241824Z 24006KT 27/12 A2981 RMK A01 T02730123  RH  039%=      5-min Rain = 0
KST3 241825Z 24008KT 27/12 A2981 RMK A01 T02740124  RH  039%=      5-min Rain = 0
KST3 241826Z 25007KT 28/13 A2981 RMK A01 T02760126  RH  039%=      5-min Rain = 0
KST3 241827Z 22005KT 28/12 A2981 RMK A01 T02790123  RH  038%=      5-min Rain = 0
KST3 241828Z 23005KT 28/12 A2981 RMK A01 T02780123  RH  038%=      5-min Rain = 0
KST3 241829Z 25007KT 28/13 A2981 RMK A01 T02780127  RH  039%=      5-min Rain = 0
KST3 241830Z 27011KT 28/12 A2981 RMK A01 T02810120  RH  037%=      5-min Rain = 0
KST3 241831Z 28006KT 28/12 A2981 RMK A01 T02780116  RH  036%=      5-min Rain = 0
KST3 241832Z 28010KT 28/12 A2981 RMK A01 T02760120  RH  038%=      5-min Rain = 0
KST3 241833Z 27007KT 28/12 A2981 RMK A01 T02760118  RH  037%=      5-min Rain = 0
KST3 241834Z 26009KT 28/12 A2981 RMK A01 T02770116  RH  037%=      5-min Rain = 0
KST3 241835Z 25013KT 28/11 A2981 RMK A01 T02800112  RH  035%=      5-min Rain = 0
KST3 241836Z 25013KT 28/11 A2981 RMK A01 T02810110  RH  034%=      5-min Rain = 0
KST3 241837Z 24010KT 28/11 A2981 RMK A01 T02790107  RH  034%=      5-min Rain = 0
KST3 241838Z 23006G11KT 28/11 A2981 RMK A01 T02750107  RH  035%=      5-min Rain = 0
KST3 241839Z 23010KT 28/11 A2981 RMK A01 T02750109  RH  036%=      5-min Rain = 0
KST3 241840Z 22008KT 28/11 A2981 RMK A01 T02760106  RH  035%=      5-min Rain = 0
KST3 241841Z 21006KT 28/11 A2981 RMK A01 T02760108  RH  035%=      5-min Rain = 0
KST3 241842Z 22008KT 28/11 A2981 RMK A01 T02770114  RH  036%=      5-min Rain = 0
KST3 241843Z 24008KT 28/12 A2981 RMK A01 T02790115  RH  036%=      5-min Rain = 0
KST3 241844Z 23011KT 28/12 A2981 RMK A01 T02800116  RH  036%=      5-min Rain = 0
KST3 241845Z 22011KT 28/12 A2981 RMK A01 T02810116  RH  036%=      5-min Rain = 0
KST3 241846Z 23009KT 28/12 A2981 RMK A01 T02810115  RH  036%=      5-min Rain = 0
KST3 241847Z 24011KT 28/12 A2981 RMK A01 T02810117  RH  036%=      5-min Rain = 0
KST3 241848Z 23008KT 28/12 A2981 RMK A01 T02810121  RH  037%=      5-min Rain = 0
KST3 241849Z 24008KT 29/12 A2981 RMK A01 T02860119  RH  036%=      5-min Rain = 0
KST3 241850Z 22010KT 29/12 A2981 RMK A01 T02880119  RH  035%=      5-min Rain = 0
KST3 241851Z 24011KT 29/11 A2981 RMK A01 T02890114  RH  034%=      5-min Rain = 0
KST3 241852Z 24011KT 29/11 A2981 RMK A01 T02860114  RH  034%=      5-min Rain = 0
KST3 241853Z 23011KT 29/12 A2981 RMK A01 T02850117  RH  035%=      5-min Rain = 0
KST3 241854Z 24011KT 29/12 A2981 RMK A01 T02850116  RH  035%=      5-min Rain = 0
KST3 241855Z 26010KT 29/12 A2981 RMK A01 T02860115  RH  035%=      5-min Rain = 0
KST3 241856Z 26013KT 29/12 A2981 RMK A01 T02860117  RH  035%=      5-min Rain = 0
KST3 241857Z 25010KT 28/11 A2981 RMK A01 T02840114  RH  035%=      5-min Rain = 0
KST3 241858Z 25008KT 28/11 A2981 RMK A01 T02810113  RH  035%=      5-min Rain = 0
KST3 241859Z 23008KT 28/12 A2981 RMK A01 T02780116  RH  036%=      5-min Rain = 0
KST3 241900Z 23008KT 28/12 A2981 RMK A01 T02810116  RH  036%=      5-min Rain = 0
KST3 241901Z 25007KT 28/11 A2981 RMK A01 T02820114  RH  035%=      5-min Rain = 0
KST3 241902Z 25006KT 28/11 A2981 RMK A01 T02810111  RH  035%=      5-min Rain = 0
KST3 241903Z 25004KT 28/12 A2981 RMK A01 T02800115  RH  036%=      5-min Rain = 0
KST3 241904Z 26006KT 28/11 A2981 RMK A01 T02820110  RH  034%=      5-min Rain = 0
KST3 241905Z 27006KT 28/11 A2981 RMK A01 T02790112  RH  035%=      5-min Rain = 0
KST3 241906Z 26007KT 28/11 A2981 RMK A01 T02780113  RH  036%=      5-min Rain = 0
KST3 241907Z 24007KT 28/11 A2981 RMK A01 T02790106  RH  034%=      5-min Rain = 0
KST3 241908Z 27009KT 28/11 A298 RMK A01 T02790105  RH  034%=      5-min Rain = 0
KST3 241909Z 25012KT 28/11 A298 RMK A01 T02800107  RH  034%=      5-min Rain = 0
KST3 241910Z 23009KT 28/11 A2981 RMK A01 T02830108  RH  034%=      5-min Rain = 0
KST3 241911Z 24007G14KT 28/11 A298 RMK A01 T02820110  RH  034%=      5-min Rain = 0
KST3 241912Z 23011KT 28/11 A298 RMK A01 T02840108  RH  033%=      5-min Rain = 0
KST3 241913Z 23012KT 29/11 A298 RMK A01 T02860108  RH  033%=      5-min Rain = 0
KST3 241914Z 22007KT 29/11 A298 RMK A01 T02870109  RH  033%=      5-min Rain = 0
KST3 241915Z 24010KT 29/11 A298 RMK A01 T02870112  RH  034%=      5-min Rain = 0
KST3 241916Z 25011KT 29/11 A298 RMK A01 T02880108  RH  033%=      5-min Rain = 0
KST3 241917Z 24009KT 29/11 A298 RMK A01 T02880106  RH  032%=      5-min Rain = 0
KST3 241918Z 24008KT 29/10 A298 RMK A01 T02860103  RH  032%=      5-min Rain = 0
KST3 241919Z 21004KT 28/10 A298 RMK A01 T02840101  RH  032%=      5-min Rain = 0
KST3 241920Z 21006KT 28/10 A298 RMK A01 T02820101  RH  032%=      5-min Rain = 0
KST3 241921Z 21007KT 28/11 A298 RMK A01 T02810107  RH  034%=      5-min Rain = 0
KST3 241922Z 23005KT 28/11 A298 RMK A01 T02820108  RH  034%=      5-min Rain = 0
KST3 241923Z 28006KT 29/11 A298 RMK A01 T02850112  RH  034%=      5-min Rain = 0
KST3 241924Z 25009KT 29/11 A298 RMK A01 T02860110  RH  033%=      5-min Rain = 0
KST3 241925Z 26010KT 29/11 A298 RMK A01 T02900107  RH  032%=      5-min Rain = 0
KST3 241926Z 23012KT 29/10 A298 RMK A01 T02930104  RH  031%=      5-min Rain = 0
KST3 241927Z 24012KT 29/10 A298 RMK A01 T02930103  RH  031%=      5-min Rain = 0
KST3 241928Z 24011KT 29/10 A298 RMK A01 T02930103  RH  031%=      5-min Rain = 0
KST3 241929Z 24013KT 29/10 A298 RMK A01 T02930103  RH  031%=      5-min Rain = 0
KST3 241930Z 24012KT 29/11 A298 RMK A01 T02910107  RH  032%=      5-min Rain = 0
KST3 241931Z 26009KT 29/10 A298 RMK A01 T02900104  RH  032%=      5-min Rain = 0
KST3 241932Z 25007G14KT 29/11 A298 RMK A01 T02860105  RH  032%=      5-min Rain = 0
KST3 241933Z 23012KT 29/11 A298 RMK A01 T02850105  RH  032%=      5-min Rain = 0
KST3 241934Z 25011KT 29/10 A298 RMK A01 T02860104  RH  032%=      5-min Rain = 0
KST3 241935Z 25010KT 29/11 A298 RMK A01 T02870105  RH  032%=      5-min Rain = 0
KST3 241936Z 26006KT 29/10 A298 RMK A01 T02860103  RH  032%=      5-min Rain = 0
KST3 241937Z 27006KT 29/11 A298 RMK A01 T02850107  RH  033%=      5-min Rain = 0
KST3 241938Z 27007KT 29/11 A298 RMK A01 T02860106  RH  033%=      5-min Rain = 0
KST3 241939Z 30004KT 29/10 A298 RMK A01 T02850103  RH  032%=      5-min Rain = 0
KST3 241940Z 27005KT 28/10 A298 RMK A01 T02840100  RH  032%=      5-min Rain = 0
KST3 241941Z 25005KT 28/11 A298 RMK A01 T02830108  RH  033%=      5-min Rain = 0
KST3 241942Z 25005KT 29/11 A298 RMK A01 T02870106  RH  033%=      5-min Rain = 0
KST3 241943Z 26001KT 29/10 A298 RMK A01 T02890102  RH  031%=      5-min Rain = 0
KST3 241944Z 22007KT 29/10 A298 RMK A01 T02900103  RH  031%=      5-min Rain = 0
KST3 241945Z 24007KT 29/10 A298 RMK A01 T02900100  RH  031%=      5-min Rain = 0
KST3 241946Z 24005KT 29/10 A298 RMK A01 T02880100  RH  031%=      5-min Rain = 0
KST3 241947Z 26004KT 29/10 A298 RMK A01 T02870102  RH  032%=      5-min Rain = 0
KST3 241948Z 27006KT 29/10 A298 RMK A01 T02880101  RH  031%=      5-min Rain = 0
KST3 241949Z 26004KT 29/10 A298 RMK A01 T02880101  RH  031%=      5-min Rain = 0
KST3 241950Z 24006KT 29/10 A298 RMK A01 T02880101  RH  031%=      5-min Rain = 0
KST3 241951Z 23005KT 29/10 A298 RMK A01 T02890098  RH  030%=      5-min Rain = 0
KST3 241952Z 27004KT 29/10 A298 RMK A01 T02880096  RH  030%=      5-min Rain = 0
KST3 241953Z 23010G16KT 29/10 A298 RMK A01 T02880103  RH  032%=      5-min Rain = 0
KST3 241954Z 22009KT 29/10 A298 RMK A01 T02920100  RH  030%=      5-min Rain = 0
KST3 241955Z 23010KT 29/10 A2979 RMK A01 T02940097  RH  029%=      5-min Rain = 0
KST3 241956Z 22008KT 30/10 A298 RMK A01 T02970095  RH  028%=      5-min Rain = 0
KST3 241957Z 23011KT 30/09 A2979 RMK A01 T02970091  RH  028%=      5-min Rain = 0
KST3 241958Z 23011KT 30/09 A2979 RMK A01 T02970090  RH  028%=      5-min Rain = 0
KST3 241959Z 24007KT 30/09 A2979 RMK A01 T02950088  RH  028%=      5-min Rain = 0
KST3 242000Z 22010KT 29/09 A2979 RMK A01 T02930087  RH  027%=      5-min Rain = 0
KST3 242001Z 22007KT 29/09 A2979 RMK A01 T02930086  RH  027%=      5-min Rain = 0
KST3 242002Z 22009KT 29/09 A2979 RMK A01 T02920088  RH  028%=      5-min Rain = 0
KST3 242003Z 21008KT 29/08 A2979 RMK A01 T02930083  RH  027%=      5-min Rain = 0
KST3 242004Z 21007KT 29/09 A2979 RMK A01 T02920087  RH  028%=      5-min Rain = 0
KST3 242005Z 24008KT 29/09 A2979 RMK A01 T02920093  RH  029%=      5-min Rain = 0
KST3 242006Z 26007KT 29/09 A2979 RMK A01 T02930094  RH  029%=      5-min Rain = 0
KST3 242007Z 26006KT 29/09 A2979 RMK A01 T02920087  RH  028%=      5-min Rain = 0
KST3 242008Z 25007KT 29/09 A2979 RMK A01 T02910089  RH  028%=      5-min Rain = 0
KST3 242009Z 26007KT 29/09 A2979 RMK A01 T02890091  RH  029%=      5-min Rain = 0
KST3 242010Z 23007KT 29/09 A2979 RMK A01 T02890093  RH  029%=      5-min Rain = 0
KST3 242011Z 25004KT 29/09 A2979 RMK A01 T02890088  RH  028%=      5-min Rain = 0
KST3 242012Z 25002KT 29/09 A2979 RMK A01 T02870088  RH  029%=      5-min Rain = 0
KST3 242013Z 22001KT 29/09 A2979 RMK A01 T02860088  RH  029%=      5-min Rain = 0
KST3 242014Z 25001KT 29/09 A2979 RMK A01 T02870093  RH  030%=      5-min Rain = 0
KST3 242015Z 24002KT 29/09 A2979 RMK A01 T02890091  RH  029%=      5-min Rain = 0
KST3 242016Z 28002KT 29/09 A2979 RMK A01 T02900088  RH  028%=      5-min Rain = 0
KST3 242017Z 23005KT 29/09 A2979 RMK A01 T02900093  RH  029%=      5-min Rain = 0
KST3 242018Z 24003KT 29/09 A2979 RMK A01 T02910092  RH  029%=      5-min Rain = 0
KST3 242019Z 23009KT 29/09 A2979 RMK A01 T02930090  RH  028%=      5-min Rain = 0
KST3 242020Z 23010KT 30/08 A2979 RMK A01 T02970084  RH  026%=      5-min Rain = 0
KST3 242021Z 23011KT 30/09 A2979 RMK A01 T03000085  RH  026%=      5-min Rain = 0
KST3 242022Z 22011KT 30/09 A2979 RMK A01 T03020086  RH  026%=      5-min Rain = 0
KST3 242023Z 20011KT 30/08 A2979 RMK A01 T03040084  RH  025%=      5-min Rain = 0
KST3 242024Z 21010KT 30/08 A2979 RMK A01 T03030082  RH  025%=      5-min Rain = 0
KST3 242025Z 24010KT 30/08 A2979 RMK A01 T03030084  RH  026%=      5-min Rain = 0
KST3 242026Z 24011KT 30/09 A2979 RMK A01 T03030087  RH  026%=      5-min Rain = 0
KST3 242027Z 22006KT 30/08 A2979 RMK A01 T03030079  RH  025%=      5-min Rain = 0
KST3 242028Z 20005KT 30/08 A2979 RMK A01 T03000082  RH  026%=      5-min Rain = 0
KST3 242029Z 23005KT 30/08 A2979 RMK A01 T02990083  RH  026%=      5-min Rain = 0
KST3 242030Z 24005KT 30/08 A2979 RMK A01 T03000081  RH  025%=      5-min Rain = 0
KST3 242031Z 26006KT 30/09 A2978 RMK A01 T03000085  RH  026%=      5-min Rain = 0
KST3 242032Z 28006KT 30/09 A2978 RMK A01 T03010092  RH  027%=      5-min Rain = 0
KST3 242033Z 28005KT 30/09 A2978 RMK A01 T03010089  RH  027%=      5-min Rain = 0
KST3 242034Z 27007KT 30/10 A2978 RMK A01 T03010097  RH  028%=      5-min Rain = 0
KST3 242035Z 23007KT 30/09 A2978 RMK A01 T03030089  RH  027%=      5-min Rain = 0
KST3 242036Z 19004KT 30/07 A2978 RMK A01 T03030070  RH  023%=      5-min Rain = 0
KST3 242037Z 19003KT 30/07 A2978 RMK A01 T03020068  RH  023%=      5-min Rain = 0
KST3 242038Z 22004G10KT 30/08 A2978 RMK A01 T02990076  RH  025%=      5-min Rain = 0
KST3 242039Z 23012KT 30/08 A2978 RMK A01 T03010081  RH  025%=      5-min Rain = 0
KST3 242040Z 23008KT 30/08 A2978 RMK A01 T03040076  RH  024%=      5-min Rain = 0
KST3 242041Z 23010KT 30/08 A2978 RMK A01 T03040077  RH  024%=      5-min Rain = 0
KST3 242042Z 23008KT 30/07 A2978 RMK A01 T03030073  RH  024%=      5-min Rain = 0
KST3 242043Z 23011G17KT 30/07 A2978 RMK A01 T03020074  RH  024%=      5-min Rain = 0
KST3 242044Z 23013KT 30/08 A2978 RMK A01 T03010077  RH  025%=      5-min Rain = 0
KST3 242045Z 23011KT 30/08 A2978 RMK A01 T03020078  RH  025%=      5-min Rain = 0
KST3 242046Z 24011KT 30/08 A2978 RMK A01 T03030083  RH  025%=      5-min Rain = 0
KST3 242047Z 25009KT 31/08 A2978 RMK A01 T03050084  RH  025%=      5-min Rain = 0
KST3 242048Z 24009KT 31/08 A2978 RMK A01 T03070078  RH  024%=      5-min Rain = 0
KST3 242049Z 25007KT 30/08 A2978 RMK A01 T03030081  RH  025%=      5-min Rain = 0
KST3 242050Z 26007KT 30/08 A2978 RMK A01 T03030083  RH  025%=      5-min Rain = 0
KST3 242051Z 27006KT 30/08 A2978 RMK A01 T03030081  RH  025%=      5-min Rain = 0
KST3 242052Z 27004KT 30/09 A2978 RMK A01 T03040087  RH  026%=      5-min Rain = 0
KST3 242053Z 24010G16KT 30/09 A2978 RMK A01 T03040085  RH  026%=      5-min Rain = 0
KST3 242054Z 24011KT 31/08 A2978 RMK A01 T03050078  RH  024%=      5-min Rain = 0
KST3 242055Z 25007KT 30/07 A2978 RMK A01 T03030067  RH  023%=      5-min Rain = 0
KST3 242056Z 25011KT 30/08 A2978 RMK A01 T03010076  RH  024%=      5-min Rain = 0
KST3 242057Z 25008KT 30/08 A2978 RMK A01 T03000075  RH  024%=      5-min Rain = 0
KST3 242058Z 26006KT 30/08 A2978 RMK A01 T03000076  RH  025%=      5-min Rain = 0
KST3 242059Z 28008KT 30/08 A2977 RMK A01 T03010075  RH  024%=      5-min Rain = 0
KST3 242100Z 29003KT 30/07 A2977 RMK A01 T03000073  RH  024%=      5-min Rain = 0
KST3 242101Z 29004KT 30/08 A2977 RMK A01 T02990082  RH  026%=      5-min Rain = 0
KST3 242102Z 29007KT 30/08 A2977 RMK A01 T03010083  RH  026%=      5-min Rain = 0
KST3 242103Z 28006KT 30/08 A2977 RMK A01 T03040081  RH  025%=      5-min Rain = 0
KST3 242104Z 30007KT 30/08 A2977 RMK A01 T03040078  RH  024%=      5-min Rain = 0
KST3 242105Z 32003KT 30/07 A2977 RMK A01 T03000073  RH  024%=      5-min Rain = 0
KST3 242106Z 28003KT 30/08 A2977 RMK A01 T02980078  RH  025%=      5-min Rain = 0
KST3 242107Z 26007KT 30/08 A2977 RMK A01 T02990080  RH  025%=      5-min Rain = 0
KST3 242108Z 25008KT 30/08 A2977 RMK A01 T03030078  RH  025%=      5-min Rain = 0
KST3 242109Z 25007KT 30/08 A2977 RMK A01 T03040077  RH  024%=      5-min Rain = 0
KST3 242110Z 25009KT 30/08 A2977 RMK A01 T03040076  RH  024%=      5-min Rain = 0
KST3 242111Z 25013KT 31/07 A2977 RMK A01 T03060068  RH  023%=      5-min Rain = 0
KST3 242112Z 25011KT 31/06 A2977 RMK A01 T03070062  RH  021%=      5-min Rain = 0
KST3 242113Z 24010KT 31/07 A2977 RMK A01 T03080068  RH  022%=      5-min Rain = 0
KST3 242114Z 23008KT 31/07 A2977 RMK A01 T03100066  RH  022%=      5-min Rain = 0
KST3 242115Z 22008KT 31/06 A2976 RMK A01 T03100062  RH  021%=      5-min Rain = 0
KST3 242116Z 21008KT 31/06 A2976 RMK A01 T03090063  RH  021%=      5-min Rain = 0
KST3 242117Z 23011G16KT 31/07 A2976 RMK A01 T03100071  RH  022%=      5-min Rain = 0
KST3 242118Z 23010KT 31/06 A2976 RMK A01 T03120061  RH  021%=      5-min Rain = 0
KST3 242119Z 25008KT 31/06 A2976 RMK A01 T03120058  RH  020%=      5-min Rain = 0
KST3 242120Z 23007KT 31/06 A2976 RMK A01 T03090059  RH  021%=      5-min Rain = 0
KST3 242121Z 24009KT 31/06 A2976 RMK A01 T03100063  RH  021%=      5-min Rain = 0
KST3 242122Z 25007KT 31/06 A2976 RMK A01 T03110059  RH  021%=      5-min Rain = 0
KST3 242123Z 27003KT 31/06 A2976 RMK A01 T03090059  RH  021%=      5-min Rain = 0
KST3 242124Z 25004G11KT 31/06 A2976 RMK A01 T03070058  RH  021%=      5-min Rain = 0
KST3 242125Z 24009KT 31/06 A2976 RMK A01 T03070064  RH  022%=      5-min Rain = 0
KST3 242126Z 25006KT 31/07 A2976 RMK A01 T03090066  RH  022%=      5-min Rain = 0
KST3 242127Z 24013KT 31/06 A2976 RMK A01 T03110063  RH  021%=      5-min Rain = 0
KST3 242128Z 24009KT 31/06 A2976 RMK A01 T03120058  RH  020%=      5-min Rain = 0
KST3 242129Z 21010KT 31/06 A2975 RMK A01 T03120059  RH  020%=      5-min Rain = 0
KST3 242130Z 21007KT 31/05 A2975 RMK A01 T03130050  RH  019%=      5-min Rain = 0
KST3 242131Z 21005KT 31/05 A2975 RMK A01 T03110052  RH  020%=      5-min Rain = 0
KST3 242132Z 21006KT 31/06 A2975 RMK A01 T03100058  RH  021%=      5-min Rain = 0
KST3 242133Z 23008KT 31/06 A2975 RMK A01 T03100059  RH  021%=      5-min Rain = 0
KST3 242134Z 24004KT 31/06 A2975 RMK A01 T03090057  RH  020%=      5-min Rain = 0
KST3 242135Z 28008KT 31/06 A2975 RMK A01 T03080061  RH  021%=      5-min Rain = 0
KST3 242136Z 29009KT 31/06 A2975 RMK A01 T03070059  RH  021%=      5-min Rain = 0
KST3 242137Z 28007KT 31/06 A2975 RMK A01 T03070059  RH  021%=      5-min Rain = 0
KST3 242138Z 23007G12KT 31/06 A2975 RMK A01 T03070062  RH  021%=      5-min Rain = 0
KST3 242139Z 24011KT 31/06 A2975 RMK A01 T03080061  RH  021%=      5-min Rain = 0
KST3 242140Z 24010KT 31/06 A2975 RMK A01 T03100058  RH  021%=      5-min Rain = 0
KST3 242141Z 23012KT 31/06 A2975 RMK A01 T03120060  RH  021%=      5-min Rain = 0
KST3 242142Z 23012KT 31/06 A2975 RMK A01 T03110058  RH  020%=      5-min Rain = 0
KST3 242143Z 23012KT 31/06 A2975 RMK A01 T03100062  RH  021%=      5-min Rain = 0
KST3 242144Z 24010KT 31/06 A2975 RMK A01 T03100061  RH  021%=      5-min Rain = 0
KST3 242145Z 25007KT 31/06 A2975 RMK A01 T03090062  RH  021%=      5-min Rain = 0
KST3 242146Z 26004KT 31/06 A2975 RMK A01 T03090064  RH  022%=      5-min Rain = 0
KST3 242147Z 24007KT 31/07 A2975 RMK A01 T03080065  RH  022%=      5-min Rain = 0
KST3 242148Z 24006G11KT 31/07 A2974 RMK A01 T03080068  RH  022%=      5-min Rain = 0
KST3 242149Z 24010KT 31/07 A2974 RMK A01 T03100067  RH  022%=      5-min Rain = 0
KST3 242150Z 22011KT 31/06 A2974 RMK A01 T03110064  RH  021%=      5-min Rain = 0
KST3 242151Z 20009KT 31/06 A2974 RMK A01 T03130058  RH  020%=      5-min Rain = 0
KST3 242152Z 20007KT 31/06 A2974 RMK A01 T03110061  RH  021%=      5-min Rain = 0
KST3 242153Z 22006KT 31/07 A2974 RMK A01 T03110067  RH  022%=      5-min Rain = 0
KST3 242154Z 25007KT 31/07 A2974 RMK A01 T03120065  RH  021%=      5-min Rain = 0
KST3 242155Z 26010KT 31/07 A2974 RMK A01 T03140069  RH  022%=      5-min Rain = 0
KST3 242156Z 28010KT 32/07 A2974 RMK A01 T03150066  RH  021%=      5-min Rain = 0
KST3 242157Z 27011KT 32/06 A2974 RMK A01 T03150064  RH  021%=      5-min Rain = 0
KST3 242158Z 28009KT 31/06 A2974 RMK A01 T03110063  RH  021%=      5-min Rain = 0
KST3 242159Z 28009KT 31/06 A2974 RMK A01 T03100062  RH  021%=      5-min Rain = 0
KST3 242200Z 29010KT 31/06 A2974 RMK A01 T03080062  RH  021%=      5-min Rain = 0
KST3 242201Z 27010KT 31/07 A2974 RMK A01 T03080066  RH  022%=      5-min Rain = 0
KST3 242202Z 26011KT 31/07 A2974 RMK A01 T03090067  RH  022%=      5-min Rain = 0
KST3 242203Z 27010KT 31/06 A2974 RMK A01 T03120063  RH  021%=      5-min Rain = 0
KST3 242204Z 29007G12KT 31/07 A2974 RMK A01 T03120069  RH  022%=      5-min Rain = 0
KST3 242205Z 28010KT 31/07 A2974 RMK A01 T03120070  RH  022%=      5-min Rain = 0
KST3 242206Z 28010KT 31/06 A2974 RMK A01 T03120064  RH  021%=      5-min Rain = 0
KST3 242207Z 27009KT 31/06 A2974 RMK A01 T03070061  RH  021%=      5-min Rain = 0
KST3 242208Z 28009KT 31/06 A2974 RMK A01 T03050064  RH  022%=      5-min Rain = 0
KST3 242209Z 27009KT 30/06 A2974 RMK A01 T03030060  RH  022%=      5-min Rain = 0
KST3 242210Z 26005KT 30/06 A2973 RMK A01 T03010060  RH  022%=      5-min Rain = 0
KST3 242211Z 28006KT 30/06 A2973 RMK A01 T03000064  RH  023%=      5-min Rain = 0
KST3 242212Z 25005KT 30/06 A2973 RMK A01 T03000057  RH  022%=      5-min Rain = 0
KST3 242213Z 25006KT 30/06 A2973 RMK A01 T03000058  RH  022%=      5-min Rain = 0
KST3 242214Z 27003KT 30/06 A2973 RMK A01 T03010055  RH  021%=      5-min Rain = 0
KST3 242215Z 25003KT 30/06 A2973 RMK A01 T03020061  RH  022%=      5-min Rain = 0
KST3 242216Z 28004KT 30/06 A2973 RMK A01 T03040059  RH  021%=      5-min Rain = 0
KST3 242217Z 29006KT 30/06 A2973 RMK A01 T03040061  RH  022%=      5-min Rain = 0
KST3 242218Z 30008KT 30/06 A2973 RMK A01 T03040063  RH  022%=      5-min Rain = 0
KST3 242219Z 30009KT 30/06 A2973 RMK A01 T03030057  RH  021%=      5-min Rain = 0
KST3 242220Z 30006KT 30/06 A2973 RMK A01 T03010058  RH  022%=      5-min Rain = 0
KST3 242221Z 27008KT 30/06 A2973 RMK A01 T03000058  RH  022%=      5-min Rain = 0
KST3 242222Z 27009KT 30/06 A2973 RMK A01 T02990059  RH  022%=      5-min Rain = 0
KST3 242223Z 27007KT 30/05 A2973 RMK A01 T02990054  RH  021%=      5-min Rain = 0
KST3 242224Z 27006KT 30/05 A2973 RMK A01 T02970054  RH  021%=      5-min Rain = 0
KST3 242225Z 28004KT 30/06 A2973 RMK A01 T02960056  RH  022%=      5-min Rain = 0
KST3 242226Z 27005KT 30/06 A2973 RMK A01 T02960057  RH  022%=      5-min Rain = 0
KST3 242227Z 28006G12KT 30/06 A2973 RMK A01 T02960057  RH  022%=      5-min Rain = 0
KST3 242228Z 26008KT 30/06 A2973 RMK A01 T02960058  RH  022%=      5-min Rain = 0
KST3 242229Z 25007KT 30/06 A2973 RMK A01 T02960062  RH  023%=      5-min Rain = 0
KST3 242230Z 26006KT 30/06 A2973 RMK A01 T02960058  RH  022%=      5-min Rain = 0
KST3 242231Z 26011KT 30/06 A2973 RMK A01 T02960060  RH  022%=      5-min Rain = 0
KST3 242232Z 26011KT 30/06 A2973 RMK A01 T02970061  RH  023%=      5-min Rain = 0
KST3 242233Z 27009KT 30/06 A2973 RMK A01 T02960060  RH  023%=      5-min Rain = 0
KST3 242234Z 27010KT 30/06 A2973 RMK A01 T02960060  RH  023%=      5-min Rain = 0
KST3 242235Z 27010KT 30/06 A2973 RMK A01 T02950059  RH  022%=      5-min Rain = 0
KST3 242236Z 28011KT 30/06 A2973 RMK A01 T02950059  RH  022%=      5-min Rain = 0
KST3 242237Z 28010KT 29/06 A2973 RMK A01 T02940056  RH  022%=      5-min Rain = 0
KST3 242238Z 29009KT 29/06 A2973 RMK A01 T02930056  RH  022%=      5-min Rain = 0
KST3 242239Z 29010KT 29/06 A2972 RMK A01 T02930057  RH  022%=      5-min Rain = 0
KST3 242240Z 29010KT 29/06 A2972 RMK A01 T02920055  RH  022%=      5-min Rain = 0
KST3 242241Z 29010KT 29/05 A2972 RMK A01 T02910053  RH  022%=      5-min Rain = 0
KST3 242242Z 28009KT 29/06 A2972 RMK A01 T02910056  RH  023%=      5-min Rain = 0
KST3 242243Z 28009KT 29/06 A2972 RMK A01 T02910060  RH  023%=      5-min Rain = 0
KST3 242244Z 28008KT 29/06 A2972 RMK A01 T02910058  RH  023%=      5-min Rain = 0
KST3 242245Z 26009KT 29/06 A2972 RMK A01 T02910059  RH  023%=      5-min Rain = 0
KST3 242246Z 27008KT 29/06 A2972 RMK A01 T02910057  RH  023%=      5-min Rain = 0
KST3 242247Z 28009KT 29/06 A2972 RMK A01 T02910055  RH  022%=      5-min Rain = 0
KST3 242248Z 28007KT 29/06 A2971 RMK A01 T02900056  RH  023%=      5-min Rain = 0
KST3 242249Z 28009KT 29/06 A2971 RMK A01 T02900057  RH  023%=      5-min Rain = 0
KST3 242250Z 27009KT 29/06 A2971 RMK A01 T02900056  RH  023%=      5-min Rain = 0
KST3 242251Z 27008KT 29/06 A2972 RMK A01 T02900057  RH  023%=      5-min Rain = 0
KST3 242252Z 28008KT 29/06 A2972 RMK A01 T02900057  RH  023%=      5-min Rain = 0
KST3 242253Z 26008KT 29/06 A2972 RMK A01 T02900059  RH  023%=      5-min Rain = 0
KST3 242254Z 25009KT 29/06 A2972 RMK A01 T02890061  RH  024%=      5-min Rain = 0
KST3 242255Z 26009KT 29/06 A2972 RMK A01 T02890058  RH  023%=      5-min Rain = 0
KST3 242256Z 26008KT 29/06 A2972 RMK A01 T02890058  RH  023%=      5-min Rain = 0
KST3 242257Z 26009KT 29/06 A2972 RMK A01 T02890057  RH  023%=      5-min Rain = 0
KST3 242258Z 26008KT 29/06 A2972 RMK A01 T02890058  RH  023%=      5-min Rain = 0
KST3 242259Z 27007KT 29/06 A2972 RMK A01 T02880059  RH  023%=      5-min Rain = 0
KST3 242300Z 28008KT 29/06 A2972 RMK A01 T02880058  RH  023%=      5-min Rain = 0
KST3 242301Z 28008KT 29/06 A2972 RMK A01 T02880057  RH  023%=      5-min Rain = 0
KST3 242302Z 27007KT 29/06 A2972 RMK A01 T02870056  RH  023%=      5-min Rain = 0
KST3 242303Z 27006KT 29/06 A2971 RMK A01 T02870058  RH  023%=      5-min Rain = 0
KST3 242304Z 28008KT 29/06 A2971 RMK A01 T02870056  RH  023%=      5-min Rain = 0
KST3 242305Z 28007KT 29/06 A2971 RMK A01 T02870057  RH  023%=      5-min Rain = 0
KST3 242306Z 27008KT 29/06 A2971 RMK A01 T02870060  RH  024%=      5-min Rain = 0
KST3 242307Z 27008KT 29/06 A2971 RMK A01 T02860060  RH  024%=      5-min Rain = 0
KST3 242308Z 27008KT 29/06 A297 RMK A01 T02860058  RH  023%=      5-min Rain = 0
KST3 242309Z 27008KT 29/06 A297 RMK A01 T02860058  RH  024%=      5-min Rain = 0
KST3 242310Z 28007KT 29/06 A297 RMK A01 T02860057  RH  023%=      5-min Rain = 0
KST3 242311Z 28007KT 29/06 A297 RMK A01 T02860057  RH  023%=      5-min Rain = 0
KST3 242312Z 28007KT 29/06 A297 RMK A01 T02860059  RH  024%=      5-min Rain = 0
KST3 242313Z 27006KT 29/06 A297 RMK A01 T02850059  RH  024%=      5-min Rain = 0
KST3 242314Z 28006KT 28/06 A297 RMK A01 T02840058  RH  024%=      5-min Rain = 0
KST3 242315Z 28007KT 29/06 A297 RMK A01 T02850058  RH  024%=      5-min Rain = 0
KST3 242316Z 28007KT 28/06 A297 RMK A01 T02840057  RH  024%=      5-min Rain = 0
KST3 242317Z 29006KT 28/06 A297 RMK A01 T02840061  RH  024%=      5-min Rain = 0
KST3 242318Z 29006KT 28/06 A297 RMK A01 T02830062  RH  025%=      5-min Rain = 0
KST3 242319Z 29006KT 28/06 A297 RMK A01 T02830060  RH  024%=      5-min Rain = 0
KST3 242320Z 29006KT 28/06 A297 RMK A01 T02820061  RH  025%=      5-min Rain = 0
KST3 242321Z 29006KT 28/06 A297 RMK A01 T02810062  RH  025%=      5-min Rain = 0
KST3 242322Z 29007KT 28/06 A2969 RMK A01 T02800060  RH  025%=      5-min Rain = 0
KST3 242323Z 29007KT 28/06 A2969 RMK A01 T02800060  RH  025%=      5-min Rain = 0
KST3 242324Z 29007KT 28/06 A2969 RMK A01 T02790060  RH  025%=      5-min Rain = 0
KST3 242325Z 30007KT 28/06 A2969 RMK A01 T02780062  RH  025%=      5-min Rain = 0
KST3 242326Z 29007KT 28/06 A2969 RMK A01 T02770063  RH  026%=      5-min Rain = 0
KST3 242327Z 30006KT 28/06 A2969 RMK A01 T02770063  RH  026%=      5-min Rain = 0
KST3 242328Z 30006KT 28/06 A2969 RMK A01 T02770062  RH  026%=      5-min Rain = 0
KST3 242329Z 30006KT 28/06 A2969 RMK A01 T02760060  RH  025%=      5-min Rain = 0
KST3 242330Z 30005KT 28/06 A2969 RMK A01 T02760060  RH  025%=      5-min Rain = 0
KST3 242331Z 30006KT 28/06 A2969 RMK A01 T02760062  RH  026%=      5-min Rain = 0
KST3 242332Z 30006KT 28/06 A2968 RMK A01 T02760060  RH  025%=      5-min Rain = 0
KST3 242333Z 30006KT 28/06 A2968 RMK A01 T02760061  RH  026%=      5-min Rain = 0
KST3 242334Z 31006KT 28/06 A2968 RMK A01 T02760062  RH  026%=      5-min Rain = 0
KST3 242335Z 30006KT 28/06 A2968 RMK A01 T02750062  RH  026%=      5-min Rain = 0
KST3 242336Z 30007KT 28/06 A2968 RMK A01 T02750062  RH  026%=      5-min Rain = 0
KST3 242337Z 30007KT 27/06 A2968 RMK A01 T02740064  RH  026%=      5-min Rain = 0
KST3 242338Z 30007KT 27/06 A2967 RMK A01 T02740063  RH  026%=      5-min Rain = 0
KST3 242339Z 30007KT 27/06 A2967 RMK A01 T02730064  RH  027%=      5-min Rain = 0
KST3 242340Z 30008KT 27/07 A2967 RMK A01 T02720066  RH  027%=      5-min Rain = 0
KST3 242341Z 30006KT 27/07 A2966 RMK A01 T02700065  RH  027%=      5-min Rain = 0
KST3 242342Z 30007KT 27/06 A2966 RMK A01 T02700064  RH  027%=      5-min Rain = 0
KST3 242343Z 31007KT 27/06 A2966 RMK A01 T02700062  RH  027%=      5-min Rain = 0
KST3 242344Z 31006KT 27/06 A2966 RMK A01 T02700062  RH  027%=      5-min Rain = 0
KST3 242345Z 32006KT 27/06 A2966 RMK A01 T02700064  RH  027%=      5-min Rain = 0
KST3 242346Z 32006KT 27/07 A2966 RMK A01 T02700066  RH  027%=      5-min Rain = 0
KST3 242347Z 32006KT 27/07 A2966 RMK A01 T02680069  RH  028%=      5-min Rain = 0
KST3 242348Z 32005KT 27/07 A2966 RMK A01 T02660070  RH  029%=      5-min Rain = 0
KST3 242349Z 32005KT 27/07 A2966 RMK A01 T02650070  RH  029%=      5-min Rain = 0
KST3 242350Z 33005KT 26/07 A2966 RMK A01 T02630071  RH  029%=      5-min Rain = 0
KST3 242351Z 34005KT 26/07 A2966 RMK A01 T02620071  RH  030%=      5-min Rain = 0
KST3 242352Z 34005KT 26/07 A2966 RMK A01 T02620069  RH  029%=      5-min Rain = 0
KST3 242353Z 34004KT 26/07 A2967 RMK A01 T02620068  RH  029%=      5-min Rain = 0
KST3 242354Z 34004KT 26/07 A2967 RMK A01 T02620067  RH  029%=      5-min Rain = 0
KST3 242355Z 34004KT 26/07 A2967 RMK A01 T02620067  RH  029%=      5-min Rain = 0
KST3 242356Z 34004KT 26/07 A2967 RMK A01 T02620067  RH  029%=      5-min Rain = 0
KST3 242357Z 34004KT 26/07 A2968 RMK A01 T02620067  RH  029%=      5-min Rain = 0
KST3 242358Z 34003KT 26/07 A2968 RMK A01 T02620066  RH  029%=      5-min Rain = 0
KST3 242359Z 34003KT 26/07 A2968 RMK A01 T02630067  RH  029%=      5-min Rain = 0
KST3 250000Z 34004KT 26/07 A2968 RMK A01 T02630068  RH  029%=      5-min Rain = 0
KST3 250001Z 35004KT 26/07 A2968 RMK A01 T02620068  RH  029%=      5-min Rain = 0
KST3 250002Z 35004KT 26/07 A2968 RMK A01 T02610068  RH  029%=      5-min Rain = 0
KST3 250003Z 35004KT 26/07 A2968 RMK A01 T02610068  RH  029%=      5-min Rain = 0
KST3 250004Z 35004KT 26/07 A2968 RMK A01 T02610070  RH  030%=      5-min Rain = 0
KST3 250005Z 35004KT 26/07 A2968 RMK A01 T02600070  RH  030%=      5-min Rain = 0
KST3 250006Z 35005KT 26/07 A2968 RMK A01 T02590071  RH  030%=      5-min Rain = 0
KST3 250007Z 35005KT 26/07 A2969 RMK A01 T02590072  RH  031%=      5-min Rain = 0
KST3 250008Z 36005KT 26/07 A2969 RMK A01 T02570074  RH  031%=      5-min Rain = 0
KST3 250009Z 35005KT 26/08 A2969 RMK A01 T02560075  RH  031%=      5-min Rain = 0
KST3 250010Z 36005KT 26/07 A2968 RMK A01 T02550073  RH  031%=      5-min Rain = 0
KST3 250011Z 00005KT 26/07 A2968 RMK A01 T02550073  RH  031%=      5-min Rain = 0
KST3 250012Z 01005KT 26/07 A2968 RMK A01 T02550074  RH  032%=      5-min Rain = 0
KST3 250013Z 02005KT 25/07 A2968 RMK A01 T02540074  RH  032%=      5-min Rain = 0
KST3 250014Z 02005KT 25/08 A2968 RMK A01 T02530075  RH  032%=      5-min Rain = 0
KST3 250015Z 02005KT 25/07 A2968 RMK A01 T02520074  RH  032%=      5-min Rain = 0
KST3 250016Z 04006KT 25/07 A2968 RMK A01 T02510073  RH  032%=      5-min Rain = 0
KST3 250017Z 05007KT 25/07 A2969 RMK A01 T02510072  RH  032%=      5-min Rain = 0
KST3 250018Z 05005KT 25/07 A2968 RMK A01 T02510072  RH  032%=      5-min Rain = 0
KST3 250019Z 05005KT 25/07 A2969 RMK A01 T02520074  RH  032%=      5-min Rain = 0
KST3 250020Z 04006KT 25/08 A2969 RMK A01 T02510078  RH  033%=      5-min Rain = 0
KST3 250021Z 04005KT 25/09 A2969 RMK A01 T02510086  RH  035%=      5-min Rain = 0
KST3 250022Z 05007KT 25/09 A2969 RMK A01 T02510091  RH  036%=      5-min Rain = 0
KST3 250023Z 07009KT 25/10 A2969 RMK A01 T02520097  RH  038%=      5-min Rain = 0
KST3 250024Z 07009KT 25/10 A2969 RMK A01 T02520099  RH  038%=      5-min Rain = 0
KST3 250025Z 08012KT 25/10 A2969 RMK A01 T02520100  RH  038%=      5-min Rain = 0
KST3 250026Z 07010KT 25/10 A2969 RMK A01 T02520102  RH  039%=      5-min Rain = 0
KST3 250027Z 07009KT 25/10 A2969 RMK A01 T02510102  RH  039%=      5-min Rain = 0
KST3 250028Z 08009KT 25/10 A2969 RMK A01 T02500102  RH  039%=      5-min Rain = 0
KST3 250029Z 08009KT 25/10 A2969 RMK A01 T02490103  RH  040%=      5-min Rain = 0
KST3 250030Z 07010KT 25/10 A2969 RMK A01 T02480103  RH  040%=      5-min Rain = 0
KST3 250031Z 08008KT 25/10 A2969 RMK A01 T02470103  RH  040%=      5-min Rain = 0
KST3 250032Z 08009KT 25/10 A2969 RMK A01 T02460103  RH  040%=      5-min Rain = 0
KST3 250033Z 08010KT 25/10 A2969 RMK A01 T02460103  RH  041%=      5-min Rain = 0
KST3 250034Z 08008KT 25/10 A297 RMK A01 T02450103  RH  041%=      5-min Rain = 0
KST3 250035Z 08007KT 25/10 A297 RMK A01 T02450104  RH  041%=      5-min Rain = 0
KST3 250036Z 08005KT 25/10 A297 RMK A01 T02450104  RH  041%=      5-min Rain = 0
KST3 250037Z 08005KT 24/10 A297 RMK A01 T02440104  RH  041%=      5-min Rain = 0
KST3 250038Z 08006KT 24/10 A297 RMK A01 T02430104  RH  041%=      5-min Rain = 0
KST3 250039Z 10006KT 24/10 A297 RMK A01 T02420104  RH  042%=      5-min Rain = 0
KST3 250040Z 10007KT 24/10 A297 RMK A01 T02410103  RH  042%=      5-min Rain = 0
KST3 250041Z 09005KT 24/10 A297 RMK A01 T02410102  RH  041%=      5-min Rain = 0
KST3 250042Z 08004KT 24/10 A297 RMK A01 T02400101  RH  041%=      5-min Rain = 0
KST3 250043Z 10003KT 24/10 A297 RMK A01 T02410101  RH  041%=      5-min Rain = 0
KST3 250044Z 12003KT 24/10 A297 RMK A01 T02400101  RH  041%=      5-min Rain = 0
KST3 250045Z 16002KT 24/10 A297 RMK A01 T02400101  RH  041%=      5-min Rain = 0
KST3 250046Z 15004KT 24/10 A297 RMK A01 T02400102  RH  042%=      5-min Rain = 0
KST3 250047Z 15004KT 24/10 A2971 RMK A01 T02380101  RH  042%=      5-min Rain = 0
KST3 250048Z 17004KT 24/10 A2971 RMK A01 T02380101  RH  042%=      5-min Rain = 0
KST3 250049Z 17004KT 24/10 A2971 RMK A01 T02370102  RH  042%=      5-min Rain = 0
KST3 250050Z 16005KT 24/10 A2971 RMK A01 T02380102  RH  042%=      5-min Rain = 0
KST3 250051Z 15005KT 24/10 A2971 RMK A01 T02380103  RH  042%=      5-min Rain = 0
KST3 250052Z 12004KT 24/10 A2971 RMK A01 T02380102  RH  042%=      5-min Rain = 0
KST3 250053Z 09005KT 24/10 A2971 RMK A01 T02380103  RH  042%=      5-min Rain = 0
KST3 250054Z 09007KT 24/10 A2971 RMK A01 T02380103  RH  043%=      5-min Rain = 0
KST3 250055Z 10008KT 24/10 A2971 RMK A01 T02370098  RH  041%=      5-min Rain = 0
KST3 250056Z 09009KT 24/10 A2971 RMK A01 T02370095  RH  041%=      5-min Rain = 0
KST3 250057Z 07009KT 24/10 A2971 RMK A01 T02370095  RH  040%=      5-min Rain = 0
KST3 250058Z 08009KT 24/09 A2971 RMK A01 T02360089  RH  039%=      5-min Rain = 0
KST3 250059Z 09011KT 24/09 A2971 RMK A01 T02350086  RH  039%=      5-min Rain = 0
KST3 250100Z 09011KT 23/08 A2971 RMK A01 T02330084  RH  038%=      5-min Rain = 0
KST3 250101Z 09011KT 23/08 A2971 RMK A01 T02310084  RH  039%=      5-min Rain = 0
KST3 250102Z 09011KT 23/08 A2971 RMK A01 T02300084  RH  039%=      5-min Rain = 0
KST3 250103Z 09010KT 23/08 A2971 RMK A01 T02290084  RH  040%=      5-min Rain = 0
KST3 250104Z 09009KT 23/09 A2971 RMK A01 T02280085  RH  040%=      5-min Rain = 0
KST3 250105Z 10012KT 23/09 A2971 RMK A01 T02260086  RH  041%=      5-min Rain = 0
KST3 250106Z 10011KT 23/09 A2971 RMK A01 T02250085  RH  041%=      5-min Rain = 0
KST3 250107Z 10010KT 23/09 A2971 RMK A01 T02250086  RH  041%=      5-min Rain = 0
KST3 250108Z 10011KT 22/09 A2971 RMK A01 T02240086  RH  041%=      5-min Rain = 0
KST3 250109Z 10011KT 22/09 A2971 RMK A01 T02230086  RH  041%=      5-min Rain = 0
KST3 250110Z 09010KT 22/09 A2971 RMK A01 T02220085  RH  041%=      5-min Rain = 0
KST3 250111Z 09010KT 22/09 A2971 RMK A01 T02220086  RH  042%=      5-min Rain = 0
KST3 250112Z 10009KT 22/09 A2971 RMK A01 T02210085  RH  042%=      5-min Rain = 0
KST3 250113Z 09008KT 22/09 A2971 RMK A01 T02210085  RH  042%=      5-min Rain = 0
KST3 250114Z 09008KT 22/09 A2971 RMK A01 T02210085  RH  042%=      5-min Rain = 0
KST3 250115Z 10009KT 22/09 A2971 RMK A01 T02210085  RH  042%=      5-min Rain = 0
KST3 250116Z 09009KT 22/09 A2971 RMK A01 T02200085  RH  042%=      5-min Rain = 0
KST3 250117Z 10008KT 22/09 A2971 RMK A01 T02200086  RH  042%=      5-min Rain = 0
KST3 250118Z 09009KT 22/09 A2971 RMK A01 T02190086  RH  042%=      5-min Rain = 0
KST3 250119Z 09008KT 22/09 A2971 RMK A01 T02190086  RH  042%=      5-min Rain = 0
KST3 250120Z 09007KT 22/09 A2971 RMK A01 T02180086  RH  043%=      5-min Rain = 0
KST3 250121Z 09007KT 22/09 A2971 RMK A01 T02180086  RH  043%=      5-min Rain = 0
KST3 250122Z 09007KT 22/09 A2971 RMK A01 T02180086  RH  043%=      5-min Rain = 0
KST3 250123Z 09006KT 22/09 A2972 RMK A01 T02170087  RH  043%=      5-min Rain = 0
KST3 250124Z 10006KT 22/09 A2972 RMK A01 T02160087  RH  043%=      5-min Rain = 0
KST3 250125Z 11007KT 22/09 A2972 RMK A01 T02160087  RH  044%=      5-min Rain = 0
KST3 250126Z 12006KT 22/09 A2972 RMK A01 T02150087  RH  044%=      5-min Rain = 0
KST3 250127Z 12006KT 22/09 A2972 RMK A01 T02150087  RH  044%=      5-min Rain = 0
KST3 250128Z 13006KT 22/09 A2972 RMK A01 T02150087  RH  044%=      5-min Rain = 0
KST3 250129Z 13007KT 22/09 A2972 RMK A01 T02150086  RH  043%=      5-min Rain = 0
KST3 250130Z 13007KT 22/09 A2972 RMK A01 T02160086  RH  043%=      5-min Rain = 0
KST3 250131Z 13008KT 22/09 A2972 RMK A01 T02160085  RH  043%=      5-min Rain = 0
KST3 250132Z 13009G15KT 22/09 A2973 RMK A01 T02170085  RH  043%=      5-min Rain = 0
KST3 250133Z 14013G21KT 22/08 A2973 RMK A01 T02170084  RH  043%=      5-min Rain = 0
KST3 250134Z 14018G25KT 22/08 A2973 RMK A01 T02180083  RH  042%=      5-min Rain = 0
KST3 250135Z 14014KT 22/08 A2972 RMK A01 T02190083  RH  042%=      5-min Rain = 0
KST3 250136Z 13013G18KT 22/08 A2972 RMK A01 T02200082  RH  041%=      5-min Rain = 0
KST3 250137Z 14009G15KT 22/08 A2972 RMK A01 T02200082  RH  041%=      5-min Rain = 0
KST3 250138Z 14013KT 22/08 A2972 RMK A01 T02200082  RH  041%=      5-min Rain = 0
KST3 250139Z 14013G19KT 22/08 A2972 RMK A01 T02190083  RH  041%=      5-min Rain = 0
KST3 250140Z 13014KT 22/08 A2971 RMK A01 T02190083  RH  042%=      5-min Rain = 0
KST3 250141Z 14012KT 22/08 A2971 RMK A01 T02170083  RH  042%=      5-min Rain = 0
KST3 250142Z 13015G20KT 22/08 A2971 RMK A01 T02160083  RH  042%=      5-min Rain = 0
KST3 250143Z 13015KT 21/08 A2971 RMK A01 T02140084  RH  043%=      5-min Rain = 0
KST3 250144Z 13016KT 21/08 A2971 RMK A01 T02130084  RH  044%=      5-min Rain = 0
KST3 250145Z 13017KT 21/09 A2971 RMK A01 T02120085  RH  044%=      5-min Rain = 0
KST3 250146Z 13015KT 21/09 A2971 RMK A01 T02110086  RH  045%=      5-min Rain = 0
KST3 250147Z 12013KT 21/09 A2971 RMK A01 T02100086  RH  045%=      5-min Rain = 0
KST3 250148Z 12011KT 21/09 A2971 RMK A01 T02090085  RH  045%=      5-min Rain = 0
KST3 250149Z 11014KT 21/09 A2971 RMK A01 T02090086  RH  045%=      5-min Rain = 0
KST3 250150Z 11011KT 21/09 A297 RMK A01 T02090086  RH  045%=      5-min Rain = 0
KST3 250151Z 11014KT 21/09 A297 RMK A01 T02080085  RH  045%=      5-min Rain = 0
KST3 250152Z 11013KT 21/08 A297 RMK A01 T02080084  RH  045%=      5-min Rain = 0
KST3 250153Z 10012KT 21/09 A297 RMK A01 T02080085  RH  045%=      5-min Rain = 0
KST3 250154Z 10011KT 21/08 A297 RMK A01 T02080084  RH  045%=      5-min Rain = 0
KST3 250155Z 10010KT 21/09 A297 RMK A01 T02080085  RH  045%=      5-min Rain = 0
KST3 250156Z 10010KT 21/09 A2969 RMK A01 T02070085  RH  045%=      5-min Rain = 0
KST3 250157Z 10011KT 21/09 A2969 RMK A01 T02070085  RH  045%=      5-min Rain = 0
KST3 250158Z 09012KT 21/08 A2969 RMK A01 T02060083  RH  045%=      5-min Rain = 0
KST3 250159Z 10011KT 21/08 A2969 RMK A01 T02060082  RH  045%=      5-min Rain = 0
KST3 250200Z 10011KT 21/08 A2969 RMK A01 T02070083  RH  045%=      5-min Rain = 0
KST3 250201Z 10010KT 21/08 A2969 RMK A01 T02070083  RH  045%=      5-min Rain = 0
KST3 250202Z 10012KT 21/08 A2969 RMK A01 T02060083  RH  045%=      5-min Rain = 0
KST3 250203Z 10014KT 21/08 A2969 RMK A01 T02060081  RH  045%=      5-min Rain = 0
KST3 250204Z 10011KT 21/08 A2969 RMK A01 T02070081  RH  044%=      5-min Rain = 0
KST3 250205Z 09010KT 21/08 A2969 RMK A01 T02070082  RH  045%=      5-min Rain = 0
KST3 250206Z 09010KT 21/08 A2969 RMK A01 T02070082  RH  045%=      5-min Rain = 0
KST3 250207Z 09011KT 21/08 A2969 RMK A01 T02060082  RH  045%=      5-min Rain = 0
KST3 250208Z 09010KT 21/08 A297 RMK A01 T02060082  RH  045%=      5-min Rain = 0
KST3 250209Z 09011KT 21/08 A297 RMK A01 T02060082  RH  045%=      5-min Rain = 0
KST3 250210Z 09010KT 21/08 A297 RMK A01 T02060083  RH  045%=      5-min Rain = 0
KST3 250211Z 08009KT 21/08 A297 RMK A01 T02060082  RH  045%=      5-min Rain = 0
KST3 250212Z 09007KT 21/08 A297 RMK A01 T02050082  RH  045%=      5-min Rain = 0
KST3 250213Z 09009KT 21/08 A297 RMK A01 T02050083  RH  045%=      5-min Rain = 0
KST3 250214Z 10011KT 21/08 A297 RMK A01 T02050083  RH  045%=      5-min Rain = 0
KST3 250215Z 09009KT 21/08 A297 RMK A01 T02050083  RH  046%=      5-min Rain = 0
KST3 250216Z 09008KT 20/08 A297 RMK A01 T02040084  RH  046%=      5-min Rain = 0
KST3 250217Z 09010KT 20/08 A297 RMK A01 T02040084  RH  046%=      5-min Rain = 0
KST3 250218Z 10008KT 20/08 A297 RMK A01 T02040084  RH  046%=      5-min Rain = 0
KST3 250219Z 09008KT 20/08 A297 RMK A01 T02030084  RH  046%=      5-min Rain = 0
KST3 250220Z 09008KT 20/08 A297 RMK A01 T02020084  RH  046%=      5-min Rain = 0
KST3 250221Z 09008KT 20/08 A297 RMK A01 T02020084  RH  047%=      5-min Rain = 0
KST3 250222Z 09008KT 20/08 A297 RMK A01 T02020084  RH  047%=      5-min Rain = 0
KST3 250223Z 09008KT 20/08 A297 RMK A01 T02010084  RH  047%=      5-min Rain = 0
KST3 250224Z 09009KT 20/08 A297 RMK A01 T02020084  RH  047%=      5-min Rain = 0
KST3 250225Z 09008KT 20/08 A297 RMK A01 T02020084  RH  046%=      5-min Rain = 0
KST3 250226Z 09006KT 20/08 A297 RMK A01 T02020083  RH  046%=      5-min Rain = 0
KST3 250227Z 08006KT 20/08 A297 RMK A01 T02020083  RH  046%=      5-min Rain = 0
KST3 250228Z 09007KT 20/08 A297 RMK A01 T02020083  RH  046%=      5-min Rain = 0
KST3 250229Z 08005KT 20/08 A297 RMK A01 T02020082  RH  046%=      5-min Rain = 0
KST3 250230Z 08005KT 20/08 A297 RMK A01 T02030084  RH  046%=      5-min Rain = 0
KST3 250231Z 08004KT 20/08 A297 RMK A01 T02020084  RH  046%=      5-min Rain = 0
KST3 250232Z 07004KT 20/08 A297 RMK A01 T02020083  RH  046%=      5-min Rain = 0
KST3 250233Z 07004KT 20/08 A297 RMK A01 T02010083  RH  047%=      5-min Rain = 0
KST3 250234Z 07004KT 20/08 A297 RMK A01 T02010083  RH  047%=      5-min Rain = 0
KST3 250235Z 08003KT 20/08 A297 RMK A01 T02010083  RH  047%=      5-min Rain = 0
KST3 250236Z 08004KT 20/08 A297 RMK A01 T02010083  RH  047%=      5-min Rain = 0
KST3 250237Z 08004KT 20/08 A297 RMK A01 T02010083  RH  046%=      5-min Rain = 0
KST3 250238Z 09004KT 20/08 A297 RMK A01 T02010083  RH  047%=      5-min Rain = 0
KST3 250239Z 09005KT 20/08 A2971 RMK A01 T02000083  RH  047%=      5-min Rain = 0
KST3 250240Z 09005KT 20/08 A2971 RMK A01 T01990084  RH  047%=      5-min Rain = 0
KST3 250241Z 09005KT 20/08 A2971 RMK A01 T01980084  RH  048%=      5-min Rain = 0
KST3 250242Z 09005KT 20/08 A2971 RMK A01 T01970083  RH  048%=      5-min Rain = 0
KST3 250243Z 09004KT 20/08 A2971 RMK A01 T01970083  RH  048%=      5-min Rain = 0
KST3 250244Z 08004KT 20/08 A2971 RMK A01 T01980083  RH  047%=      5-min Rain = 0
KST3 250245Z 07004KT 20/08 A2971 RMK A01 T01980082  RH  047%=      5-min Rain = 0
KST3 250246Z 07004KT 20/08 A2971 RMK A01 T01980082  RH  047%=      5-min Rain = 0
KST3 250247Z 07003KT 20/08 A2971 RMK A01 T01980082  RH  047%=      5-min Rain = 0
KST3 250248Z 07004KT 20/08 A2971 RMK A01 T01980082  RH  047%=      5-min Rain = 0
KST3 250249Z 07004KT 20/08 A2971 RMK A01 T01980082  RH  047%=      5-min Rain = 0
KST3 250250Z 07004KT 20/08 A2971 RMK A01 T01980082  RH  047%=      5-min Rain = 0
KST3 250251Z 07004KT 20/08 A2971 RMK A01 T01980082  RH  047%=      5-min Rain = 0
KST3 250252Z 07004KT 20/08 A2971 RMK A01 T01980083  RH  047%=      5-min Rain = 0
KST3 250253Z 08004KT 20/08 A2971 RMK A01 T01980083  RH  047%=      5-min Rain = 0
KST3 250254Z 08004KT 20/08 A2971 RMK A01 T01980083  RH  048%=      5-min Rain = 0
KST3 250255Z 08004KT 20/08 A2971 RMK A01 T01970083  RH  048%=      5-min Rain = 0
KST3 250256Z 07004KT 20/08 A2971 RMK A01 T01960083  RH  048%=      5-min Rain = 0
KST3 250257Z 06004KT 20/08 A2971 RMK A01 T01960082  RH  048%=      5-min Rain = 0
KST3 250258Z 05003KT 20/08 A297 RMK A01 T01970082  RH  047%=      5-min Rain = 0
KST3 250259Z 05003KT 20/08 A297 RMK A01 T01970081  RH  047%=      5-min Rain = 0
KST3 250300Z 04004KT 20/08 A297 RMK A01 T01970081  RH  047%=      5-min Rain = 0
KST3 250301Z 04003KT 20/08 A297 RMK A01 T01970082  RH  047%=      5-min Rain = 0
KST3 250302Z 03004KT 20/08 A297 RMK A01 T01960082  RH  048%=      5-min Rain = 0
KST3 250303Z 03004KT 20/08 A297 RMK A01 T01950082  RH  048%=      5-min Rain = 0
KST3 250304Z 03004KT 19/08 A2971 RMK A01 T01940083  RH  049%=      5-min Rain = 0
KST3 250305Z 04003KT 19/08 A2971 RMK A01 T01930083  RH  049%=      5-min Rain = 0
KST3 250306Z 04003KT 19/08 A2971 RMK A01 T01920083  RH  049%=      5-min Rain = 0
KST3 250307Z 05003KT 19/08 A2971 RMK A01 T01920082  RH  049%=      5-min Rain = 0
KST3 250308Z 04003KT 19/08 A2971 RMK A01 T01920083  RH  049%=      5-min Rain = 0
KST3 250309Z 04003KT 19/08 A2971 RMK A01 T01920082  RH  049%=      5-min Rain = 0
KST3 250310Z 04003KT 19/08 A2971 RMK A01 T01920082  RH  049%=      5-min Rain = 0
KST3 250311Z 04004KT 19/08 A2971 RMK A01 T01920083  RH  049%=      5-min Rain = 0
KST3 250312Z 03004KT 19/08 A2971 RMK A01 T01910082  RH  049%=      5-min Rain = 0
KST3 250313Z 03003KT 19/08 A297 RMK A01 T01910082  RH  049%=      5-min Rain = 0
KST3 250314Z 02004KT 19/08 A297 RMK A01 T01910081  RH  049%=      5-min Rain = 0
KST3 250315Z 01004KT 19/08 A297 RMK A01 T01910082  RH  049%=      5-min Rain = 0
KST3 250316Z 00004KT 19/08 A297 RMK A01 T01910082  RH  049%=      5-min Rain = 0
KST3 250317Z 00004KT 19/08 A2969 RMK A01 T01900083  RH  050%=      5-min Rain = 0
KST3 250318Z 00004KT 19/08 A297 RMK A01 T01900083  RH  050%=      5-min Rain = 0
KST3 250319Z 01003KT 19/08 A297 RMK A01 T01890083  RH  050%=      5-min Rain = 0
KST3 250320Z 01003KT 19/08 A297 RMK A01 T01880083  RH  050%=      5-min Rain = 0
KST3 250321Z 02003KT 19/08 A297 RMK A01 T01880083  RH  051%=      5-min Rain = 0
KST3 250322Z 02003KT 19/08 A297 RMK A01 T01880084  RH  051%=      5-min Rain = 0
KST3 250323Z 02002KT 19/08 A297 RMK A01 T01880083  RH  050%=      5-min Rain = 0
KST3 250324Z 02002KT 19/08 A2971 RMK A01 T01880081  RH  050%=      5-min Rain = 0
KST3 250325Z 02002KT 19/08 A2971 RMK A01 T01890081  RH  050%=      5-min Rain = 0
KST3 250326Z 03001KT 19/08 A2971 RMK A01 T01900081  RH  049%=      5-min Rain = 0
KST3 250327Z 00000KT 19/08 A2971 RMK A01 T01900081  RH  049%=      5-min Rain = 0
KST3 250328Z 11001KT 19/08 A2972 RMK A01 T01900082  RH  049%=      5-min Rain = 0
KST3 250329Z 12003KT 19/08 A2972 RMK A01 T01910081  RH  049%=      5-min Rain = 0
KST3 250330Z 13003KT 19/08 A2973 RMK A01 T01920081  RH  048%=      5-min Rain = 0
KST3 250331Z 14005KT 19/08 A2973 RMK A01 T01930080  RH  048%=      5-min Rain = 0
KST3 250332Z 14005KT 20/08 A2974 RMK A01 T01950080  RH  047%=      5-min Rain = 0
KST3 250333Z 15006KT 20/08 A2974 RMK A01 T01970080  RH  047%=      5-min Rain = 0
KST3 250334Z 15006KT 20/08 A2975 RMK A01 T01990082  RH  047%=      5-min Rain = 0
KST3 250335Z 15007KT 20/08 A2975 RMK A01 T01990084  RH  047%=      5-min Rain = 0
KST3 250336Z 15008KT 20/08 A2976 RMK A01 T01980083  RH  047%=      5-min Rain = 0
KST3 250337Z 15009KT 20/08 A2976 RMK A01 T01980082  RH  047%=      5-min Rain = 0
KST3 250338Z 14010KT 20/08 A2977 RMK A01 T01990081  RH  047%=      5-min Rain = 0
KST3 250339Z 15013KT 20/08 A2977 RMK A01 T02010081  RH  046%=      5-min Rain = 0
KST3 250340Z 16015KT 20/08 A2977 RMK A01 T02040081  RH  045%=      5-min Rain = 0
KST3 250341Z 15013KT 21/08 A2977 RMK A01 T02070081  RH  044%=      5-min Rain = 0
KST3 250342Z 15014KT 21/08 A2977 RMK A01 T02080082  RH  044%=      5-min Rain = 0
KST3 250343Z 16017KT 21/08 A2978 RMK A01 T02080083  RH  045%=      5-min Rain = 0
KST3 250344Z 17021KT 21/09 A2978 RMK A01 T02070085  RH  045%=      5-min Rain = 0
KST3 250345Z 17020KT 21/09 A2978 RMK A01 T02070086  RH  046%=      5-min Rain = 0
KST3 250346Z 16017KT 21/09 A2978 RMK A01 T02080088  RH  046%=      5-min Rain = 0
KST3 250347Z 16013KT 21/09 A2979 RMK A01 T02070088  RH  046%=      5-min Rain = 0
KST3 250348Z 15013KT 21/09 A2979 RMK A01 T02060089  RH  047%=      5-min Rain = 0
KST3 250349Z 16015G24KT 21/09 A2979 RMK A01 T02050090  RH  047%=      5-min Rain = 0
KST3 250350Z 16016KT 20/09 A2979 RMK A01 T02030092  RH  049%=      5-min Rain = 0
KST3 250351Z 15017G22KT 20/09 A2979 RMK A01 T02010094  RH  050%=      5-min Rain = 0
KST3 250352Z 16017KT 20/10 A2979 RMK A01 T01980095  RH  051%=      5-min Rain = 0
KST3 250353Z 16016KT 20/10 A298 RMK A01 T01960096  RH  052%=      5-min Rain = 0
KST3 250354Z 14012KT 20/10 A298 RMK A01 T01950096  RH  053%=      5-min Rain = 0
KST3 250355Z 12014G21KT 19/10 A298 RMK A01 T01930096  RH  053%=      5-min Rain = 0
KST3 250356Z 13015G21KT 19/10 A298 RMK A01 T01920096  RH  054%=      5-min Rain = 0
KST3 250357Z 14015G20KT 19/10 A298 RMK A01 T01910097  RH  054%=      5-min Rain = 0
KST3 250358Z 14015G21KT 19/10 A298 RMK A01 T01890097  RH  055%=      5-min Rain = 0
KST3 250359Z 13014KT 19/10 A2981 RMK A01 T01870097  RH  056%=      5-min Rain = 0
KST3 250400Z 14012G17KT 19/10 A2981 RMK A01 T01860097  RH  056%=      5-min Rain = 0
KST3 250401Z 13011G16KT 19/10 A2981 RMK A01 T01850098  RH  057%=      5-min Rain = 0
KST3 250402Z 13009KT 18/10 A2981 RMK A01 T01840098  RH  057%=      5-min Rain = 0
KST3 250403Z 14010KT 18/10 A2981 RMK A01 T01830098  RH  058%=      5-min Rain = 0
KST3 250404Z 14009KT 18/10 A2981 RMK A01 T01820099  RH  058%=      5-min Rain = 0
KST3 250405Z 13009KT 18/10 A2981 RMK A01 T01820099  RH  059%=      5-min Rain = 0
KST3 250406Z 14007KT 18/10 A2981 RMK A01 T01810099  RH  059%=      5-min Rain = 0
KST3 250407Z 13007KT 18/10 A2981 RMK A01 T01800100  RH  059%=      5-min Rain = 0
KST3 250408Z 11007KT 18/10 A2982 RMK A01 T01790100  RH  060%=      5-min Rain = 0
KST3 250409Z 11006KT 18/10 A2982 RMK A01 T01780100  RH  060%=      5-min Rain = 0
KST3 250410Z 14004KT 18/10 A2982 RMK A01 T01780100  RH  060%=      5-min Rain = 0
KST3 250411Z 11003KT 18/10 A2982 RMK A01 T01780101  RH  060%=      5-min Rain = 0
KST3 250412Z 11005KT 18/10 A2982 RMK A01 T01770100  RH  061%=      5-min Rain = 0
KST3 250413Z 11006KT 18/10 A2982 RMK A01 T01770101  RH  061%=      5-min Rain = 0
KST3 250414Z 10006KT 18/10 A2983 RMK A01 T01770101  RH  061%=      5-min Rain = 0
KST3 250415Z 11008KT 18/10 A2983 RMK A01 T01760101  RH  061%=      5-min Rain = 0
KST3 250416Z 10012KT 18/10 A2983 RMK A01 T01760101  RH  061%=      5-min Rain = 0
KST3 250417Z 10010KT 18/10 A2983 RMK A01 T01760102  RH  062%=      5-min Rain = 0
KST3 250418Z 11012KT 18/10 A2983 RMK A01 T01760102  RH  062%=      5-min Rain = 0
KST3 250419Z 11012KT 18/10 A2983 RMK A01 T01750102  RH  062%=      5-min Rain = 0
KST3 250420Z 12012KT 18/10 A2983 RMK A01 T01750102  RH  062%=      5-min Rain = 0
KST3 250421Z 13014KT 17/10 A2983 RMK A01 T01740102  RH  062%=      5-min Rain = 0
KST3 250422Z 13013KT 17/10 A2983 RMK A01 T01740103  RH  063%=      5-min Rain = 0
KST3 250423Z 13012KT 17/10 A2983 RMK A01 T01730103  RH  063%=      5-min Rain = 0
KST3 250424Z 13014KT 17/10 A2983 RMK A01 T01730103  RH  064%=      5-min Rain = 0
KST3 250425Z 13012KT 17/10 A2983 RMK A01 T01720103  RH  064%=      5-min Rain = 0
KST3 250426Z 14011KT 17/10 A2983 RMK A01 T01710104  RH  065%=      5-min Rain = 0
KST3 250427Z 13009KT 17/10 A2983 RMK A01 T01700104  RH  065%=      5-min Rain = 0
KST3 250428Z 13010KT 17/10 A2983 RMK A01 T01700104  RH  065%=      5-min Rain = 0
KST3 250429Z 13010KT 17/11 A2983 RMK A01 T01690105  RH  066%=      5-min Rain = 0
KST3 250430Z 13009KT 17/11 A2983 RMK A01 T01690105  RH  066%=      5-min Rain = 0
KST3 250431Z 14013KT 17/11 A2983 RMK A01 T01680106  RH  067%=      5-min Rain = 0
KST3 250432Z 14013KT 17/11 A2983 RMK A01 T01670106  RH  067%=      5-min Rain = 0
KST3 250433Z 13010KT 17/11 A2983 RMK A01 T01670107  RH  068%=      5-min Rain = 0
KST3 250434Z 13009KT 17/11 A2983 RMK A01 T01660107  RH  068%=      5-min Rain = 0
KST3 250435Z 12012KT 17/11 A2983 RMK A01 T01660108  RH  068%=      5-min Rain = 0
KST3 250436Z 12012KT 17/11 A2983 RMK A01 T01650108  RH  069%=      5-min Rain = 0
KST3 250437Z 12009KT 16/11 A2983 RMK A01 T01640108  RH  069%=      5-min Rain = 0
KST3 250438Z 13007KT 16/11 A2983 RMK A01 T01640109  RH  070%=      5-min Rain = 0
KST3 250439Z 13009KT 16/11 A2982 RMK A01 T01630108  RH  070%=      5-min Rain = 0
KST3 250440Z 14009KT 16/11 A2982 RMK A01 T01630109  RH  070%=      5-min Rain = 0
KST3 250441Z 15009KT 16/11 A2982 RMK A01 T01620109  RH  071%=      5-min Rain = 0
KST3 250442Z 14008KT 16/11 A2982 RMK A01 T01620109  RH  071%=      5-min Rain = 0
KST3 250443Z 15010KT 16/11 A2982 RMK A01 T01610110  RH  071%=      5-min Rain = 0
KST3 250444Z 16010KT 16/11 A2983 RMK A01 T01610110  RH  072%=      5-min Rain = 0
KST3 250445Z 16012KT 16/11 A2983 RMK A01 T01610110  RH  072%=      5-min Rain = 0
KST3 250446Z 15011KT 16/11 A2983 RMK A01 T01610110  RH  072%=      5-min Rain = 0
KST3 250447Z 14010KT 16/11 A2983 RMK A01 T01610111  RH  072%=      5-min Rain = 0
KST3 250448Z 13007KT 16/11 A2983 RMK A01 T01610111  RH  072%=      5-min Rain = 0
KST3 250449Z 12009KT 16/11 A2983 RMK A01 T01610111  RH  073%=      5-min Rain = 0
KST3 250450Z 11009KT 16/11 A2983 RMK A01 T01600112  RH  073%=      5-min Rain = 0
KST3 250451Z 10010KT 16/11 A2983 RMK A01 T01600112  RH  073%=      5-min Rain = 0
KST3 250452Z 10008KT 16/11 A2983 RMK A01 T01590112  RH  073%=      5-min Rain = 0
KST3 250453Z 11009KT 16/11 A2983 RMK A01 T01590112  RH  074%=      5-min Rain = 0
KST3 250454Z 13010KT 16/11 A2983 RMK A01 T01590112  RH  074%=      5-min Rain = 0
KST3 250455Z 14008KT 16/11 A2984 RMK A01 T01590112  RH  074%=      5-min Rain = 0
KST3 250456Z 14005KT 16/11 A2984 RMK A01 T01590112  RH  074%=      5-min Rain = 0
KST3 250457Z 15005KT 16/11 A2984 RMK A01 T01590112  RH  074%=      5-min Rain = 0
KST3 250458Z 13006KT 16/11 A2984 RMK A01 T01590113  RH  074%=      5-min Rain = 0
KST3 250459Z 13007KT 16/11 A2985 RMK A01 T01580113  RH  074%=      5-min Rain = 0

Page generated in 0.1349 seconds.